NK237 / N646NK 7700 Squawk Report (20th of June, 2021)

Aircraft A320 Reg No. N646NK Age 5 years old
Model A320 Jet engines 2 First flight 15-03-16
Registered 31-03-16 Rollout 03-16 Delivered 01-04-16
Construction No. 7062 Line No. N/A Series 232(SL)
ADSHEX A87CBB Airline name Spirit Airlines Owner N/A
Airfield based Fort Lauderdale-International~FL~N First tracked N/A

Flight history for N646NK

Route Flight No Date Playback
Orlando Intl (MCO) - Logan International Airport (BOS) NK441 2021-08-02 01:02:00
Detroit Metro Wayne Co (DTW) - Orlando Intl (MCO) NK435 2021-08-01 18:02:00
Louis Armstrong New Orleans Intl (MSY) - Detroit Metro Wayne Co (DTW) NK810 2021-08-01 13:30:00
Fort Lauderdale Hollywood Intl (FLL) - Louis Armstrong New Orleans Intl (MSY) NK657 2021-08-01 06:08:00
Hartsfield Jackson Atlanta Intl (ATL) - Fort Lauderdale Hollywood Intl (FLL) NK403 2021-08-01 02:33:00
George Bush Intercontinental (IAH) - Hartsfield Jackson Atlanta Intl (ATL) NK362 2021-07-31 22:54:00
Hartsfield Jackson Atlanta Intl (ATL) - George Bush Intercontinental (IAH) NK363 2021-07-31 14:52:00
McCarran Intl (LAS) - Hartsfield Jackson Atlanta Intl (ATL) NK806 2021-07-31 11:06:00
Cleveland Hopkins Intl (CLE) - McCarran Intl (LAS) NK1069 2021-07-31 07:19:00
Orlando Intl (MCO) - Cleveland Hopkins Intl (CLE) NK707 2021-07-31 00:30:00
Atlantic City Intl (ACY) - Orlando Intl (MCO) NK389 2021-07-30 20:42:00
Orlando Intl (MCO) - Atlantic City Intl (ACY) NK388 2021-07-30 18:07:00
Cleveland Hopkins Intl (CLE) - Orlando Intl (MCO) NK708 2021-07-30 13:24:00
Los Angeles Intl (LAX) - Cleveland Hopkins Intl (CLE) NK184 2021-07-30 09:04:00
Louisville International Airport (SDF) - Los Angeles Intl (LAX) NK502 2021-07-30 04:42:00
Los Angeles Intl (LAX) - Louisville International Airport (SDF) NK503 2021-07-29 19:54:00
Detroit Metro Wayne Co (DTW) - Los Angeles Intl (LAX) NK2932 2021-07-29 14:39:00
Southwest Florida Intl (RSW) - Detroit Metro Wayne Co (DTW) NK3662 2021-07-28 17:22:00
Detroit Metro Wayne Co (DTW) - Southwest Florida Intl (RSW) NK627 2021-07-28 14:49:00
Los Angeles Intl (LAX) - Detroit Metro Wayne Co (DTW) NK709 2021-07-28 10:09:00
Time Lat Lon Altitude Heading Speed Vertical Rate
2021-06-20 17:18:46 GMT 26.067619 -80.142967 0 89 11 0
2021-06-20 17:18:45 GMT 26.067619 -80.143021 0 89 11 0
2021-06-20 17:18:44 GMT 26.067610 -80.143082 0 89 11 0
2021-06-20 17:18:43 GMT 26.067610 -80.143173 0 89 12 0
2021-06-20 17:18:41 GMT 26.067610 -80.143227 0 89 12 0
2021-06-20 17:18:40 GMT 26.067610 -80.143280 0 90 12 0
2021-06-20 17:18:38 GMT 26.067610 -80.143410 0 90 12 0
2021-06-20 17:18:37 GMT 26.067610 -80.143471 0 90 12 0
2021-06-20 17:18:35 GMT 26.067600 -80.143669 0 91 12 0
2021-06-20 17:18:33 GMT 26.067600 -80.143730 0 91 12 0
2021-06-20 17:18:32 GMT 26.067600 -80.143852 0 91 12 0
2021-06-20 17:18:30 GMT 26.067600 -80.143913 0 91 13 0
2021-06-20 17:18:29 GMT 26.067600 -80.143982 0 91 12 0
2021-06-20 17:18:28 GMT 26.067610 -80.144043 0 91 12 0
2021-06-20 17:18:26 GMT 26.067610 -80.144173 0 91 12 0
2021-06-20 17:18:25 GMT 26.067610 -80.144241 0 91 12 0
2021-06-20 17:18:23 GMT 26.067619 -80.144463 0 91 11 0
2021-06-20 17:18:21 GMT 26.067619 -80.144508 0 91 11 0
2021-06-20 17:18:20 GMT 26.067619 -80.144562 0 91 11 0
2021-06-20 17:18:19 GMT 26.067619 -80.144630 0 90 11 0
2021-06-20 17:18:17 GMT 26.067631 -80.144737 0 90 11 0
2021-06-20 17:18:16 GMT 26.067631 -80.144814 0 90 11 0
2021-06-20 17:18:15 GMT 26.067631 -80.144920 0 90 10 0
2021-06-20 17:18:12 GMT 26.067631 -80.145020 0 90 10 0
2021-06-20 17:18:11 GMT 26.067640 -80.145058 0 90 10 0
2021-06-20 17:18:09 GMT 26.067650 -80.145081 0 90 11 0
2021-06-20 17:18:08 GMT 26.067650 -80.145111 0 90 10 0
2021-06-20 17:18:06 GMT 26.067650 -80.145203 0 90 11 0
2021-06-20 17:18:05 GMT 26.067640 -80.145264 0 90 10 0
2021-06-20 17:18:03 GMT 26.067659 -80.145370 0 88 10 0
2021-06-20 17:18:02 GMT 26.067659 -80.145416 0 89 11 0
2021-06-20 17:18:01 GMT 26.067650 -80.145477 0 89 10 0
2021-06-20 17:17:59 GMT 26.067650 -80.145576 0 88 10 0
2021-06-20 17:17:58 GMT 26.067650 -80.145638 0 86 10 0
2021-06-20 17:17:57 GMT 26.067650 -80.145699 0 86 10 0
2021-06-20 17:17:55 GMT 26.067650 -80.145790 0 88 10 0
2021-06-20 17:17:54 GMT 26.067640 -80.145859 0 90 10 0
2021-06-20 17:17:53 GMT 26.067659 -80.145912 0 94 9 0
2021-06-20 17:17:52 GMT 26.067610 -80.146011 0 106 10 0
2021-06-20 17:17:50 GMT 26.067619 -80.146057 0 107 10 0
2021-06-20 17:17:49 GMT 26.067619 -80.146111 0 113 10 0
2021-06-20 17:17:47 GMT 26.067619 -80.146210 0 122 11 0
2021-06-20 17:17:46 GMT 26.067640 -80.146271 0 126 11 0
2021-06-20 17:17:45 GMT 26.067650 -80.146332 0 131 10 0
2021-06-20 17:17:43 GMT 26.067699 -80.146431 0 135 11 0
2021-06-20 17:17:42 GMT 26.067720 -80.146469 0 135 11 0
2021-06-20 17:17:40 GMT 26.067810 -80.146553 0 134 11 0
2021-06-20 17:17:39 GMT 26.067841 -80.146584 0 134 12 0
2021-06-20 17:17:38 GMT 26.067881 -80.146629 0 135 11 0
2021-06-20 17:17:36 GMT 26.067949 -80.146729 0 136 11 0
2021-06-20 17:17:35 GMT 26.068020 -80.146790 0 135 12 0
2021-06-20 17:17:34 GMT 26.068060 -80.146843 0 135 12 0
2021-06-20 17:17:32 GMT 26.068100 -80.146881 0 135 12 0
2021-06-20 17:17:31 GMT 26.068140 -80.146919 0 135 12 0
2021-06-20 17:17:29 GMT 26.068220 -80.147003 0 135 12 0
2021-06-20 17:17:28 GMT 26.068260 -80.147049 0 136 12 0
2021-06-20 17:17:26 GMT 26.068350 -80.147148 0 135 12 0
2021-06-20 17:17:25 GMT 26.068390 -80.147186 0 134 12 0
2021-06-20 17:17:24 GMT 26.068430 -80.147232 0 133 12 0
2021-06-20 17:17:22 GMT 26.068510 -80.147324 0 134 12 0
2021-06-20 17:17:21 GMT 26.068541 -80.147362 0 134 13 0
2021-06-20 17:17:19 GMT 26.068630 -80.147453 0 135 13 0
2021-06-20 17:17:18 GMT 26.068670 -80.147499 0 136 13 0
2021-06-20 17:17:16 GMT 26.068750 -80.147598 0 139 13 0
2021-06-20 17:17:15 GMT 26.068790 -80.147652 0 140 13 0
2021-06-20 17:17:14 GMT 26.068821 -80.147690 0 142 14 0
2021-06-20 17:17:12 GMT 26.068911 -80.147781 0 145 15 0
2021-06-20 17:17:11 GMT 26.068979 -80.147820 0 138 14 0
2021-06-20 17:17:09 GMT 26.069099 -80.147919 0 131 13 0
2021-06-20 17:17:08 GMT 26.069139 -80.147987 0 137 12 0
2021-06-20 17:17:07 GMT 26.069189 -80.148071 0 142 16 0
2021-06-20 17:17:05 GMT 26.069250 -80.148102 0 138 16 0
2021-06-20 17:17:03 GMT 26.069361 -80.148216 0 140 16 0
2021-06-20 17:17:02 GMT 26.069510 -80.148300 0 119 12 0
2021-06-20 17:16:59 GMT 26.069510 -80.148438 0 143 11 0
2021-06-20 17:16:58 GMT 26.069530 -80.148468 0 145 14 0
2021-06-20 17:16:56 GMT 26.069651 -80.148560 0 142 15 0
2021-06-20 17:16:54 GMT 26.069759 -80.148643 0 132 15 0
2021-06-20 17:16:53 GMT 26.069811 -80.148712 0 137 15 0
2021-06-20 17:16:51 GMT 26.069910 -80.148819 0 141 14 0
2021-06-20 17:16:50 GMT 26.069990 -80.148857 0 128 11 0
2021-06-20 17:16:49 GMT 26.070040 -80.148911 0 124 10 0
2021-06-20 17:16:48 GMT 26.070070 -80.148972 0 130 14 0
2021-06-20 17:16:46 GMT 26.070101 -80.149033 0 134 15 0
2021-06-20 17:16:45 GMT 26.070200 -80.149162 0 135 13 0
2021-06-20 17:16:43 GMT 26.070221 -80.149162 0 133 15 0
2021-06-20 17:16:42 GMT 26.070259 -80.149200 0 132 16 0
2021-06-20 17:16:41 GMT 26.070370 -80.149307 0 129 15 0
2021-06-20 17:16:39 GMT 26.070419 -80.149361 0 128 15 0
2021-06-20 17:16:38 GMT 26.070471 -80.149490 0 137 13 0
2021-06-20 17:16:37 GMT 26.070570 -80.149597 0 138 11 0
2021-06-20 17:16:35 GMT 26.070610 -80.149643 0 137 10 0
2021-06-20 17:16:34 GMT 26.070660 -80.149673 0 134 10 0
2021-06-20 17:16:32 GMT 26.070721 -80.149742 0 135 11 0
2021-06-20 17:16:31 GMT 26.070770 -80.149803 0 136 10 0
2021-06-20 17:16:30 GMT 26.070850 -80.149879 0 136 9 0
2021-06-20 17:16:28 GMT 26.070890 -80.149910 0 136 9 0
2021-06-20 17:16:27 GMT 26.070881 -80.149910 0 136 12 0
2021-06-20 17:16:25 GMT 26.070940 -80.150002 0 140 13 0
2021-06-20 17:16:24 GMT 26.070980 -80.150040 0 140 13 0
2021-06-20 17:16:22 GMT 26.071070 -80.150131 0 142 13 0
2021-06-20 17:16:21 GMT 26.071119 -80.150169 0 140 14 0
2021-06-20 17:16:20 GMT 26.071230 -80.150284 0 134 11 0
2021-06-20 17:16:18 GMT 26.071301 -80.150307 0 128 10 0
2021-06-20 17:16:17 GMT 26.071341 -80.150322 0 126 12 0
2021-06-20 17:16:16 GMT 26.071400 -80.150436 0 129 8 0
2021-06-20 17:16:14 GMT 26.071430 -80.150459 0 124 9 0
2021-06-20 17:16:12 GMT 26.071510 -80.150543 0 105 6 0
2021-06-20 17:16:11 GMT 26.071520 -80.150558 0 115 7 0
2021-06-20 17:16:10 GMT 26.071510 -80.150612 0 125 12 0
2021-06-20 17:16:08 GMT 26.071501 -80.150681 0 145 12 0
2021-06-20 17:16:07 GMT 26.071541 -80.150719 0 149 13 0
2021-06-20 17:16:06 GMT 26.071650 -80.150780 0 142 11 0
2021-06-20 17:16:04 GMT 26.071680 -80.150787 0 139 14 0
2021-06-20 17:16:03 GMT 26.071730 -80.150841 0 141 13 0
2021-06-20 17:16:01 GMT 26.071840 -80.150932 0 137 11 0
2021-06-20 17:16:00 GMT 26.071880 -80.150963 0 134 11 0
2021-06-20 17:15:58 GMT 26.071960 -80.151039 0 137 11 0
2021-06-20 17:15:56 GMT 26.072029 -80.151123 0 138 10 0
2021-06-20 17:15:55 GMT 26.072069 -80.151161 0 143 10 0
2021-06-20 17:15:54 GMT 26.072109 -80.151199 0 152 8 0
2021-06-20 17:15:53 GMT 26.072130 -80.151253 0 168 7 0
2021-06-20 17:15:51 GMT 26.072189 -80.151260 0 177 8 0
2021-06-20 17:15:50 GMT 26.072189 -80.151283 0 181 13 0
2021-06-20 17:15:48 GMT 26.072321 -80.151291 0 178 11 0
2021-06-20 17:15:47 GMT 26.072371 -80.151268 0 179 11 0
2021-06-20 17:15:46 GMT 26.072420 -80.151291 0 187 10 0
2021-06-20 17:15:44 GMT 26.072510 -80.151268 0 178 11 0
2021-06-20 17:15:43 GMT 26.072550 -80.151268 0 185 11 0
2021-06-20 17:15:42 GMT 26.072611 -80.151291 0 195 11 0
2021-06-20 17:15:40 GMT 26.072720 -80.151260 0 202 10 0
2021-06-20 17:15:39 GMT 26.072760 -80.151260 0 210 10 0
2021-06-20 17:15:38 GMT 26.072821 -80.151237 0 214 9 0
2021-06-20 17:15:36 GMT 26.072889 -80.151192 0 223 11 0
2021-06-20 17:15:35 GMT 26.072941 -80.151161 0 227 12 0
2021-06-20 17:15:34 GMT 26.073021 -80.151047 0 225 11 0
2021-06-20 17:15:32 GMT 26.073050 -80.151031 0 227 12 0
2021-06-20 17:15:31 GMT 26.073080 -80.150993 0 226 13 0
2021-06-20 17:15:30 GMT 26.073120 -80.150932 0 222 13 0
2021-06-20 17:15:28 GMT 26.073210 -80.150841 0 222 13 0
2021-06-20 17:15:27 GMT 26.073250 -80.150803 0 222 13 0
2021-06-20 17:15:26 GMT 26.073351 -80.150711 0 226 13 0
2021-06-20 17:15:24 GMT 26.073389 -80.150673 0 228 14 0
2021-06-20 17:15:23 GMT 26.073441 -80.150620 0 226 15 0
2021-06-20 17:15:21 GMT 26.073521 -80.150497 0 220 15 0
2021-06-20 17:15:20 GMT 26.073580 -80.150452 0 224 16 0
2021-06-20 17:15:18 GMT 26.073690 -80.150330 0 227 12 0
2021-06-20 17:15:17 GMT 26.073730 -80.150307 0 232 14 0
2021-06-20 17:15:16 GMT 26.073799 -80.150208 0 233 15 0
2021-06-20 17:15:14 GMT 26.073839 -80.150162 0 234 16 0
2021-06-20 17:15:13 GMT 26.073891 -80.150078 0 233 15 0
2021-06-20 17:15:12 GMT 26.073919 -80.150009 0 222 16 0
2021-06-20 17:15:10 GMT 26.074020 -80.149887 0 213 15 0
2021-06-20 17:15:08 GMT 26.074150 -80.149818 0 229 14 0
2021-06-20 17:15:07 GMT 26.074200 -80.149757 0 230 13 0
2021-06-20 17:15:05 GMT 26.074280 -80.149658 0 232 14 0
2021-06-20 17:15:04 GMT 26.074320 -80.149597 0 228 13 0
2021-06-20 17:15:03 GMT 26.074369 -80.149529 0 225 11 0
2021-06-20 17:15:01 GMT 26.074430 -80.149460 0 221 14 0
2021-06-20 17:15:00 GMT 26.074471 -80.149399 0 217 14 0
2021-06-20 17:14:59 GMT 26.074591 -80.149307 0 223 11 0
2021-06-20 17:14:57 GMT 26.074619 -80.149269 0 223 12 0
2021-06-20 17:14:56 GMT 26.074659 -80.149239 0 227 13 0
2021-06-20 17:14:54 GMT 26.074730 -80.149170 0 230 16 0
2021-06-20 17:14:53 GMT 26.074760 -80.149078 0 218 15 0
2021-06-20 17:14:52 GMT 26.074829 -80.149040 0 224 14 0
2021-06-20 17:14:50 GMT 26.074909 -80.148933 0 220 15 0
2021-06-20 17:14:49 GMT 26.074970 -80.148872 0 218 13 0
2021-06-20 17:14:48 GMT 26.075090 -80.148781 0 230 12 0
2021-06-20 17:14:46 GMT 26.075130 -80.148750 0 237 12 0
2021-06-20 17:14:45 GMT 26.075180 -80.148712 0 239 13 0
2021-06-20 17:14:43 GMT 26.075190 -80.148613 0 220 15 0
2021-06-20 17:14:42 GMT 26.075230 -80.148529 0 209 14 0
2021-06-20 17:14:41 GMT 26.075279 -80.148491 0 204 13 0
2021-06-20 17:14:39 GMT 26.075380 -80.148438 0 192 13 0
2021-06-20 17:14:38 GMT 26.075430 -80.148430 0 188 13 0
2021-06-20 17:14:37 GMT 26.075550 -80.148376 0 164 11 0
2021-06-20 17:14:35 GMT 26.075600 -80.148369 0 157 12 0
2021-06-20 17:14:34 GMT 26.075670 -80.148376 0 150 10 0
2021-06-20 17:14:32 GMT 26.075781 -80.148422 0 130 9 0
2021-06-20 17:14:31 GMT 26.075809 -80.148430 0 123 10 0
2021-06-20 17:14:30 GMT 26.075850 -80.148483 0 119 10 0
2021-06-20 17:14:29 GMT 26.075899 -80.148552 0 116 10 0
2021-06-20 17:14:27 GMT 26.075911 -80.148598 0 119 10 0
2021-06-20 17:14:26 GMT 26.075930 -80.148651 0 123 9 0
2021-06-20 17:14:24 GMT 26.075979 -80.148727 0 124 11 0
2021-06-20 17:14:23 GMT 26.075991 -80.148758 0 123 13 0
2021-06-20 17:14:22 GMT 26.076040 -80.148819 0 121 12 0
2021-06-20 17:14:21 GMT 26.076111 -80.148933 0 117 9 0
2021-06-20 17:14:19 GMT 26.076130 -80.148972 0 115 9 0
2021-06-20 17:14:18 GMT 26.076151 -80.149002 0 114 11 0
2021-06-20 17:14:17 GMT 26.076191 -80.149101 0 118 11 0
2021-06-20 17:14:15 GMT 26.076191 -80.149139 0 122 12 0
2021-06-20 17:14:14 GMT 26.076220 -80.149200 0 122 11 0
2021-06-20 17:14:13 GMT 26.076290 -80.149292 0 120 11 0
2021-06-20 17:14:11 GMT 26.076300 -80.149353 0 120 9 0
2021-06-20 17:14:10 GMT 26.076370 -80.149429 0 111 9 0
2021-06-20 17:14:08 GMT 26.076389 -80.149483 0 108 6 0
2021-06-20 17:14:07 GMT 26.076389 -80.149498 0 121 8 0
2021-06-20 17:14:05 GMT 26.076401 -80.149567 0 132 11 0
2021-06-20 17:14:04 GMT 26.076429 -80.149628 0 143 10 0
2021-06-20 17:14:02 GMT 26.076490 -80.149696 0 152 11 0
2021-06-20 17:14:01 GMT 26.076550 -80.149742 0 153 8 0
2021-06-20 17:14:00 GMT 26.076590 -80.149773 0 152 8 0
2021-06-20 17:13:58 GMT 26.076679 -80.149780 0 140 6 0
2021-06-20 17:13:57 GMT 26.076691 -80.149803 0 142 6 0
2021-06-20 17:13:55 GMT 26.076759 -80.149841 0 178 5 0
2021-06-20 17:13:54 GMT 26.076780 -80.149857 0 217 5 0
2021-06-20 17:13:52 GMT 26.076830 -80.149948 0 284 2 0
2021-06-20 17:13:51 GMT 26.076820 -80.149979 0 282 1 0
2021-06-20 17:13:50 GMT 26.076820 -80.150032 0 282 0 0
2021-06-20 17:13:47 GMT 26.076820 -80.150146 0 280 0 0
2021-06-20 17:13:45 GMT 26.076830 -80.150108 0 280 0 0
2021-06-20 17:13:44 GMT 26.076839 -80.150131 0 280 0 0
2021-06-20 17:13:42 GMT 26.076830 -80.150169 0 279 0 0
2021-06-20 17:13:41 GMT 26.076830 -80.150162 0 279 0 0
2021-06-20 17:13:40 GMT 26.076839 -80.150139 0 279 0 0
2021-06-20 17:13:38 GMT 26.076830 -80.150139 0 279 0 0
2021-06-20 17:13:37 GMT 26.076820 -80.150169 0 279 0 0
2021-06-20 17:13:36 GMT 26.076839 -80.150124 0 279 0 0
2021-06-20 17:13:34 GMT 26.076851 -80.150131 0 279 0 0
2021-06-20 17:13:33 GMT 26.076839 -80.150162 0 279 0 0
2021-06-20 17:13:32 GMT 26.076870 -80.150124 0 279 0 0
2021-06-20 17:13:30 GMT 26.076870 -80.150124 0 279 0 0
2021-06-20 17:13:28 GMT 26.076860 -80.150124 0 279 0 0
2021-06-20 17:13:27 GMT 26.076851 -80.150146 0 279 0 0
2021-06-20 17:13:25 GMT 26.076839 -80.150146 0 279 0 0
2021-06-20 17:13:24 GMT 26.076839 -80.150162 0 279 0 0
2021-06-20 17:13:23 GMT 26.076830 -80.150177 0 279 0 0
2021-06-20 17:13:21 GMT 26.076839 -80.150162 0 279 0 0
2021-06-20 17:13:18 GMT 26.076839 -80.150146 0 279 0 0
2021-06-20 17:13:16 GMT 26.076830 -80.150177 0 279 0 0
2021-06-20 17:13:15 GMT 26.076839 -80.150162 0 279 0 0
2021-06-20 17:13:13 GMT 26.076811 -80.150139 0 279 0 0
2021-06-20 17:13:09 GMT 26.076830 -80.150131 0 279 0 0
2021-06-20 17:13:07 GMT 26.076820 -80.150146 0 279 0 0
2021-06-20 17:13:06 GMT 26.076820 -80.150131 0 279 0 0
2021-06-20 17:13:04 GMT 26.076830 -80.150139 0 279 0 0
2021-06-20 17:13:03 GMT 26.076839 -80.150146 0 279 0 0
2021-06-20 17:13:01 GMT 26.076811 -80.150146 0 279 0 0
2021-06-20 17:13:00 GMT 26.076830 -80.150124 0 279 0 0
2021-06-20 17:12:58 GMT 26.076830 -80.150124 0 279 0 0
2021-06-20 17:12:57 GMT 26.076820 -80.150146 0 279 0 0
2021-06-20 17:12:56 GMT 26.076839 -80.150146 0 279 0 0
2021-06-20 17:12:53 GMT 26.076839 -80.150146 0 279 0 0
2021-06-20 17:12:51 GMT 26.076839 -80.150131 0 279 0 0
2021-06-20 17:12:50 GMT 26.076851 -80.150108 0 279 0 0
2021-06-20 17:12:49 GMT 26.076851 -80.150093 0 279 1 0
2021-06-20 17:12:47 GMT 26.076851 -80.150124 0 279 0 0
2021-06-20 17:12:45 GMT 26.076860 -80.150124 0 278 0 0
2021-06-20 17:12:43 GMT 26.076851 -80.150139 0 273 0 0
2021-06-20 17:12:42 GMT 26.076811 -80.150139 0 277 0 0
2021-06-20 17:12:41 GMT 26.076811 -80.150124 0 273 0 0
2021-06-20 17:12:39 GMT 26.076839 -80.150177 0 273 0 0
2021-06-20 17:12:38 GMT 26.076811 -80.150124 0 279 0 0
2021-06-20 17:12:36 GMT 26.076830 -80.150162 0 273 0 0
2021-06-20 17:12:35 GMT 26.076830 -80.150139 0 273 0 0
2021-06-20 17:12:34 GMT 26.076839 -80.150146 0 273 0 0
2021-06-20 17:12:32 GMT 26.076830 -80.150177 0 273 0 0
2021-06-20 17:12:30 GMT 26.076839 -80.150177 0 273 0 0
2021-06-20 17:12:29 GMT 26.076839 -80.150162 0 273 0 0
2021-06-20 17:12:28 GMT 26.076839 -80.150146 0 273 0 0
2021-06-20 17:12:26 GMT 26.076839 -80.150177 0 273 0 0
2021-06-20 17:12:25 GMT 26.076839 -80.150162 0 273 0 0
2021-06-20 17:12:23 GMT 26.076839 -80.150162 0 273 0 0
2021-06-20 17:12:22 GMT 26.076839 -80.150192 0 273 0 0
2021-06-20 17:12:21 GMT 26.076851 -80.150177 0 284 0 0
2021-06-20 17:12:19 GMT 26.076839 -80.150177 0 273 0 0
2021-06-20 17:12:18 GMT 26.076851 -80.150146 0 273 0 0
2021-06-20 17:12:15 GMT 26.076839 -80.150177 0 273 0 0
2021-06-20 17:12:14 GMT 26.076839 -80.150162 0 273 0 0
2021-06-20 17:12:12 GMT 26.076839 -80.150177 0 273 0 0
2021-06-20 17:12:11 GMT 26.076839 -80.150162 0 273 0 0
2021-06-20 17:12:09 GMT 26.076839 -80.150177 0 273 0 0
2021-06-20 17:12:08 GMT 26.076839 -80.150146 0 273 0 0
2021-06-20 17:12:07 GMT 26.076839 -80.150177 0 273 0 0
2021-06-20 17:12:05 GMT 26.076839 -80.150169 0 273 0 0
2021-06-20 17:12:04 GMT 26.076839 -80.150177 0 273 0 0
2021-06-20 17:12:03 GMT 26.076839 -80.150177 0 273 0 0
2021-06-20 17:12:01 GMT 26.076839 -80.150177 0 273 0 0
2021-06-20 17:12:00 GMT 26.076839 -80.150177 0 273 0 0
2021-06-20 17:11:58 GMT 26.076839 -80.150146 0 273 0 0
2021-06-20 17:11:57 GMT 26.076839 -80.150177 0 274 0 0
2021-06-20 17:11:55 GMT 26.076839 -80.150177 0 273 0 0
2021-06-20 17:11:54 GMT 26.076839 -80.150162 0 273 0 0
2021-06-20 17:11:53 GMT 26.076839 -80.150146 0 273 0 0
2021-06-20 17:11:51 GMT 26.076830 -80.150177 0 273 0 0
2021-06-20 17:11:50 GMT 26.076839 -80.150162 0 273 0 0
2021-06-20 17:11:48 GMT 26.076839 -80.150146 0 273 0 0
2021-06-20 17:11:47 GMT 26.076839 -80.150177 0 273 0 0
2021-06-20 17:11:46 GMT 26.076839 -80.150169 0 273 0 0
2021-06-20 17:11:44 GMT 26.076839 -80.150177 0 273 0 0
2021-06-20 17:11:43 GMT 26.076839 -80.150146 0 273 0 0
2021-06-20 17:11:41 GMT 26.076839 -80.150177 0 273 0 0
2021-06-20 17:11:39 GMT 26.076839 -80.150162 0 273 0 0
2021-06-20 17:11:37 GMT 26.076820 -80.150177 0 273 0 0
2021-06-20 17:11:34 GMT 26.076839 -80.150146 0 273 0 0
2021-06-20 17:11:33 GMT 26.076839 -80.150162 0 271 0 0
2021-06-20 17:11:31 GMT 26.076830 -80.150192 0 269 0 0
2021-06-20 17:11:30 GMT 26.076811 -80.150169 0 269 0 0
2021-06-20 17:11:29 GMT 26.076811 -80.150162 0 269 0 0
2021-06-20 17:11:28 GMT 26.076799 -80.150177 0 269 0 0
2021-06-20 17:11:26 GMT 26.076799 -80.150177 0 269 0 0
2021-06-20 17:11:25 GMT 26.076811 -80.150169 0 269 0 0
2021-06-20 17:11:23 GMT 26.076811 -80.150162 0 269 0 0
2021-06-20 17:11:21 GMT 26.076811 -80.150177 0 269 0 0
2021-06-20 17:11:18 GMT 26.076811 -80.150162 0 269 0 0
2021-06-20 17:11:16 GMT 26.076811 -80.150162 0 269 0 0
2021-06-20 17:11:15 GMT 26.076830 -80.150139 0 269 0 0
2021-06-20 17:11:13 GMT 26.076830 -80.150131 0 269 0 0
2021-06-20 17:11:12 GMT 26.076811 -80.150146 0 269 0 0
2021-06-20 17:11:11 GMT 26.076851 -80.150093 0 270 0 0
2021-06-20 17:11:08 GMT 26.076851 -80.150093 0 270 0 0
2021-06-20 17:11:06 GMT 26.076870 -80.150101 0 270 0 0
2021-06-20 17:11:05 GMT 26.076891 -80.150093 0 270 0 0
2021-06-20 17:11:03 GMT 26.076900 -80.150070 0 270 0 0
2021-06-20 17:11:02 GMT 26.076891 -80.150070 0 270 0 0
2021-06-20 17:11:01 GMT 26.076860 -80.150101 0 270 0 0
2021-06-20 17:11:00 GMT 26.076870 -80.150093 0 270 0 0
2021-06-20 17:10:58 GMT 26.076839 -80.150093 0 270 0 0
2021-06-20 17:10:56 GMT 26.076860 -80.150093 0 270 0 0
2021-06-20 17:10:54 GMT 26.076870 -80.150070 0 271 0 0
2021-06-20 17:10:53 GMT 26.076880 -80.150070 0 271 1 0
2021-06-20 17:10:51 GMT 26.076880 -80.150078 0 270 1 0
2021-06-20 17:10:50 GMT 26.076880 -80.150063 0 270 0 0
2021-06-20 17:10:45 GMT 26.076860 -80.150040 0 269 0 0
2021-06-20 17:10:34 GMT 26.076860 -80.150047 0 269 0 0
2021-06-20 17:10:33 GMT 26.076870 -80.150047 0 269 1 0
2021-06-20 17:10:31 GMT 26.076860 -80.150047 0 269 1 0
2021-06-20 17:10:30 GMT 26.076860 -80.150139 0 267 7 0
2021-06-20 17:10:28 GMT 26.076860 -80.150146 0 259 9 0
2021-06-20 17:10:26 GMT 26.076851 -80.150146 0 234 11 0
2021-06-20 17:10:25 GMT 26.076851 -80.150131 0 201 10 0
2021-06-20 17:10:23 GMT 26.076839 -80.150078 0 108 6 0
2021-06-20 17:10:22 GMT 26.076830 -80.150040 0 108 4 0
2021-06-20 17:10:21 GMT 26.076839 -80.150040 0 108 7 0
2021-06-20 17:10:19 GMT 26.076891 -80.150093 0 92 15 0
2021-06-20 17:10:18 GMT 26.076910 -80.150162 0 87 20 0
2021-06-20 17:10:16 GMT 26.076929 -80.150337 0 84 36 0
2021-06-20 17:10:15 GMT 26.076900 -80.150497 0 87 41 0
2021-06-20 17:10:14 GMT 26.076880 -80.150719 0 89 45 0
2021-06-20 17:10:12 GMT 26.076880 -80.151192 0 89 56 32
2021-06-20 17:10:11 GMT 26.076860 -80.151459 0 90 64 32
2021-06-20 17:10:09 GMT 26.076900 -80.152130 0 89 74 32
2021-06-20 17:10:08 GMT 26.076880 -80.152473 0 90 84 32
2021-06-20 17:10:07 GMT 26.076870 -80.152893 0 91 87 32
2021-06-20 17:10:06 GMT 26.076880 -80.153770 -175 91 100 -256
2021-06-20 17:10:03 GMT 26.076910 -80.154739 -175 90 116 352
2021-06-20 17:10:02 GMT 26.076891 -80.155312 -175 90 120 352
2021-06-20 17:10:01 GMT 26.076969 -80.155869 -175 88 127 352
2021-06-20 17:10:00 GMT 26.076870 -80.156517 -175 91 129 -800
2021-06-20 17:09:58 GMT 26.076950 -80.158493 -175 90 139 -800
2021-06-20 17:09:56 GMT 26.076969 -80.159187 -175 89 142 -800
2021-06-20 17:09:55 GMT 26.076941 -80.159920 -175 90 141 -800
2021-06-20 17:09:54 GMT 26.076960 -80.161377 -150 89 140 -800
2021-06-20 17:09:52 GMT 26.076950 -80.162086 -150 89 143 -800
2021-06-20 17:09:51 GMT 26.076941 -80.162788 -125 90 148 -800
2021-06-20 17:09:49 GMT 26.076950 -80.164299 -100 90 145 -800
2021-06-20 17:09:48 GMT 26.076950 -80.165070 -75 89 142 -800
2021-06-20 17:09:47 GMT 26.076969 -80.166519 -75 88 148 -800
2021-06-20 17:09:45 GMT 26.076969 -80.167297 -50 89 147 -800
2021-06-20 17:09:44 GMT 26.076920 -80.168053 -25 91 149 -800
2021-06-20 17:09:42 GMT 26.076969 -80.169563 0 90 151 -800
2021-06-20 17:09:41 GMT 26.076969 -80.170349 0 90 149 -800
2021-06-20 17:09:40 GMT 26.076960 -80.171097 25 91 149 -800
2021-06-20 17:09:39 GMT 26.076960 -80.172569 400 91 153 -800
2021-06-20 17:09:37 GMT 26.076981 -80.173279 400 90 157 -800
2021-06-20 17:09:36 GMT 26.077040 -80.174187 400 89 150 -800
2021-06-20 17:09:34 GMT 26.077021 -80.175713 400 89 151 -800
2021-06-20 17:09:33 GMT 26.077009 -80.176521 400 90 148 -800
2021-06-20 17:09:31 GMT 26.076990 -80.178070 400 90 146 -800
2021-06-20 17:09:30 GMT 26.077030 -80.178810 400 90 147 -800
2021-06-20 17:09:29 GMT 26.077021 -80.179573 400 90 147 -800
2021-06-20 17:09:27 GMT 26.077021 -80.181091 400 90 146 -800
2021-06-20 17:09:26 GMT 26.077009 -80.181847 400 90 146 -800
2021-06-20 17:09:25 GMT 26.077021 -80.183327 400 90 148 -800
2021-06-20 17:09:23 GMT 26.077049 -80.184090 400 90 148 -800
2021-06-20 17:09:22 GMT 26.077040 -80.184868 400 90 146 -800
2021-06-20 17:09:21 GMT 26.077061 -80.185623 400 90 146 -800
2021-06-20 17:09:20 GMT 26.077049 -80.186401 400 90 145 -800
2021-06-20 17:09:18 GMT 26.077070 -80.187889 400 89 145 -800
2021-06-20 17:09:17 GMT 26.077070 -80.188622 400 89 146 -800
2021-06-20 17:09:16 GMT 26.077030 -80.190132 400 90 146 -800
2021-06-20 17:09:14 GMT 26.077049 -80.190857 400 90 147 -800
2021-06-20 17:09:12 GMT 26.077049 -80.192360 400 90 148 -800
2021-06-20 17:09:10 GMT 26.077080 -80.193871 400 90 149 -800
2021-06-20 17:09:09 GMT 26.077080 -80.194641 600 90 149 -800
2021-06-20 17:09:07 GMT 26.077089 -80.196190 600 90 148 -800
2021-06-20 17:09:06 GMT 26.077089 -80.196930 600 90 149 -800
2021-06-20 17:09:05 GMT 26.077120 -80.198471 600 90 149 -800
2021-06-20 17:09:03 GMT 26.077120 -80.199219 600 90 150 -800
2021-06-20 17:09:02 GMT 26.077120 -80.199997 600 90 149 -800
2021-06-20 17:09:00 GMT 26.077110 -80.201530 600 90 150 -800
2021-06-20 17:08:59 GMT 26.077120 -80.202301 600 90 150 -1184
2021-06-20 17:08:58 GMT 26.077129 -80.203827 600 90 150 -1184
2021-06-20 17:08:56 GMT 26.077141 -80.204628 600 90 148 -1184
2021-06-20 17:08:55 GMT 26.077141 -80.205383 700 90 148 -1184
2021-06-20 17:08:54 GMT 26.077129 -80.206917 700 90 147 -1184
2021-06-20 17:08:52 GMT 26.077141 -80.207680 700 90 147 -1184
2021-06-20 17:08:51 GMT 26.077150 -80.208420 700 90 147 -1184
2021-06-20 17:08:50 GMT 26.077169 -80.209930 700 89 147 -1184
2021-06-20 17:08:47 GMT 26.077150 -80.211456 700 90 146 -1184
2021-06-20 17:08:46 GMT 26.077141 -80.212952 800 90 148 -1184
2021-06-20 17:08:44 GMT 26.077141 -80.213699 800 90 148 -1184
2021-06-20 17:08:43 GMT 26.077150 -80.214462 800 90 148 -1184
2021-06-20 17:08:41 GMT 26.077181 -80.215981 900 90 149 -1184
2021-06-20 17:08:40 GMT 26.077181 -80.216743 900 90 149 -1184
2021-06-20 17:08:39 GMT 26.077209 -80.217499 900 90 149 -1184
2021-06-20 17:08:37 GMT 26.077200 -80.219017 900 90 150 -1184
2021-06-20 17:08:36 GMT 26.077221 -80.220551 900 89 150 -1184
2021-06-20 17:08:34 GMT 26.077209 -80.221329 900 90 150 -1184
2021-06-20 17:08:32 GMT 26.077209 -80.222870 900 90 149 -1184
2021-06-20 17:08:31 GMT 26.077209 -80.223640 900 90 149 -1184
2021-06-20 17:08:30 GMT 26.077209 -80.224403 900 90 149 -1184
2021-06-20 17:08:28 GMT 26.077209 -80.225937 900 90 149 -1184
2021-06-20 17:08:27 GMT 26.077209 -80.226677 1,100 90 151 -1184
2021-06-20 17:08:25 GMT 26.077209 -80.228241 1,100 90 150 -1184
2021-06-20 17:08:24 GMT 26.077200 -80.228989 1,100 91 152 -1184
2021-06-20 17:08:23 GMT 26.077209 -80.229767 1,100 91 152 -1184
2021-06-20 17:08:21 GMT 26.077230 -80.231323 1,100 91 152 -1184
2021-06-20 17:08:20 GMT 26.077271 -80.232109 1,100 90 152 -1184
2021-06-20 17:08:19 GMT 26.077299 -80.233681 1,200 90 151 -1184
2021-06-20 17:08:17 GMT 26.077320 -80.234451 1,200 89 151 -1184
2021-06-20 17:08:15 GMT 26.077311 -80.235992 1,200 90 153 -1184
2021-06-20 17:08:14 GMT 26.077311 -80.236771 1,200 90 154 -1184
2021-06-20 17:08:13 GMT 26.077299 -80.237579 1,200 90 151 -1184
2021-06-20 17:08:12 GMT 26.077311 -80.239128 1,200 90 152 -1184
2021-06-20 17:08:10 GMT 26.077311 -80.239922 1,200 90 153 -1184
2021-06-20 17:08:09 GMT 26.077311 -80.240677 1,200 90 156 -1184
2021-06-20 17:08:07 GMT 26.077339 -80.242264 1,200 90 158 -1184
2021-06-20 17:08:06 GMT 26.077339 -80.243073 1,200 90 158 -1184
2021-06-20 17:08:05 GMT 26.077351 -80.243858 1,200 90 160 -1184
2021-06-20 17:08:03 GMT 26.077360 -80.245468 1,400 90 163 -1184
2021-06-20 17:08:02 GMT 26.077379 -80.247147 1,400 90 163 -1184
2021-06-20 17:08:00 GMT 26.077391 -80.247963 1,400 90 165 -1184
2021-06-20 17:07:59 GMT 26.077410 -80.248787 1,400 90 165 -1184
2021-06-20 17:07:57 GMT 26.077440 -80.250504 1,400 90 164 -800
2021-06-20 17:07:56 GMT 26.077450 -80.251373 1,400 90 164 -800
2021-06-20 17:07:54 GMT 26.077440 -80.253052 1,400 90 166 -800
2021-06-20 17:07:53 GMT 26.077440 -80.253891 1,400 90 168 -800
2021-06-20 17:07:51 GMT 26.077450 -80.255638 1,400 90 168 -800
2021-06-20 17:07:50 GMT 26.077459 -80.256477 1,600 90 171 -800
2021-06-20 17:07:49 GMT 26.077480 -80.258186 1,600 89 177 -800
2021-06-20 17:07:47 GMT 26.077480 -80.259071 1,600 89 179 -800
2021-06-20 17:07:46 GMT 26.077471 -80.259956 1,600 89 181 -800
2021-06-20 17:07:44 GMT 26.077459 -80.261833 1,600 89 180 -800
2021-06-20 17:07:43 GMT 26.077431 -80.263657 1,600 89 182 -800
2021-06-20 17:07:41 GMT 26.077431 -80.264587 1,600 89 183 -800
2021-06-20 17:07:40 GMT 26.077419 -80.265518 1,600 89 183 -800
2021-06-20 17:07:39 GMT 26.077419 -80.266449 1,600 89 184 -800
2021-06-20 17:07:37 GMT 26.077419 -80.268349 1,600 89 183 -800
2021-06-20 17:07:36 GMT 26.077400 -80.269302 1,700 90 184 -800
2021-06-20 17:07:35 GMT 26.077410 -80.271179 1,700 90 184 -800
2021-06-20 17:07:33 GMT 26.077410 -80.272118 1,700 90 185 -800
2021-06-20 17:07:32 GMT 26.077419 -80.273064 1,800 90 185 -800
2021-06-20 17:07:30 GMT 26.077391 -80.274971 1,800 90 185 -800
2021-06-20 17:07:29 GMT 26.077391 -80.275909 1,800 91 186 -800
2021-06-20 17:07:28 GMT 26.077379 -80.277779 1,900 91 188 -800
2021-06-20 17:07:26 GMT 26.077379 -80.278770 1,900 91 187 -800
2021-06-20 17:07:25 GMT 26.077749 -80.280884 1,900 90 183 -800
2021-06-20 17:07:23 GMT 26.077850 -80.281799 1,900 90 184 32
2021-06-20 17:07:21 GMT 26.077860 -80.283691 1,900 90 184 32
2021-06-20 17:07:20 GMT 26.077860 -80.284637 1,900 90 184 32
2021-06-20 17:07:19 GMT 26.077860 -80.285583 1,900 90 184 32
2021-06-20 17:07:17 GMT 26.078091 -80.287453 1,900 89 184 32
2021-06-20 17:07:16 GMT 26.078079 -80.288399 1,900 89 184 32
2021-06-20 17:07:15 GMT 26.078060 -80.289337 1,900 91 181 32
2021-06-20 17:07:13 GMT 26.077450 -80.291328 1,900 91 181 32
2021-06-20 17:07:11 GMT 26.077490 -80.293190 1,900 91 181 32
2021-06-20 17:07:10 GMT 26.077511 -80.294121 1,900 91 181 32
2021-06-20 17:07:09 GMT 26.077311 -80.295021 1,900 91 183 32
2021-06-20 17:07:08 GMT 26.077370 -80.296898 1,900 91 183 32
2021-06-20 17:07:06 GMT 26.077410 -80.297836 1,900 91 183 32
2021-06-20 17:07:05 GMT 26.077440 -80.298782 1,900 91 183 32
2021-06-20 17:07:03 GMT 26.077419 -80.300522 1,900 90 188 32
2021-06-20 17:07:02 GMT 26.077440 -80.301483 1,900 90 188 32
2021-06-20 17:07:01 GMT 26.077459 -80.302452 1,900 90 188 32
2021-06-20 17:06:58 GMT 26.077400 -80.305267 1,900 88 191 32
2021-06-20 17:06:57 GMT 26.077400 -80.306252 1,900 88 191 0
2021-06-20 17:06:56 GMT 26.077499 -80.308113 1,900 85 192 0
2021-06-20 17:06:54 GMT 26.077450 -80.309097 1,900 85 192 0
2021-06-20 17:06:53 GMT 26.077410 -80.310089 1,900 85 192 0
2021-06-20 17:06:51 GMT 26.077320 -80.312057 1,900 85 192 0
2021-06-20 17:06:50 GMT 26.077499 -80.313293 1,900 79 185 0
2021-06-20 17:06:49 GMT 26.077271 -80.315178 1,900 79 185 0
2021-06-20 17:06:47 GMT 26.077160 -80.316116 1,900 79 185 0
2021-06-20 17:06:45 GMT 26.077339 -80.318008 1,900 73 188 -64
2021-06-20 17:06:44 GMT 26.077129 -80.318947 1,900 73 188 -64
2021-06-20 17:06:43 GMT 26.076920 -80.319893 1,900 73 188 -64
2021-06-20 17:06:42 GMT 26.076710 -80.320824 1,900 73 188 -64
2021-06-20 17:06:40 GMT 26.076530 -80.322571 1,900 68 195 -64
2021-06-20 17:06:39 GMT 26.075939 -80.324471 1,900 68 195 -64
2021-06-20 17:06:37 GMT 26.075649 -80.325409 1,900 68 195 -64
2021-06-20 17:06:36 GMT 26.075790 -80.325974 1,900 63 208 -64
2021-06-20 17:06:34 GMT 26.075010 -80.327927 1,900 63 208 -64
2021-06-20 17:06:33 GMT 26.074619 -80.328903 1,900 63 208 -64
2021-06-20 17:06:32 GMT 26.074909 -80.329628 1,900 55 216 928
2021-06-20 17:06:31 GMT 26.073900 -80.331551 1,900 55 216 928
2021-06-20 17:06:29 GMT 26.073400 -80.332520 1,900 55 216 928
2021-06-20 17:06:28 GMT 26.072889 -80.333481 1,900 55 216 928
2021-06-20 17:06:26 GMT 26.072470 -80.335457 1,900 46 214 928
2021-06-20 17:06:25 GMT 26.071850 -80.336327 1,900 46 214 928
2021-06-20 17:06:23 GMT 26.070610 -80.338051 1,900 46 214 928
2021-06-20 17:06:22 GMT 26.070129 -80.340080 1,900 34 211 928
2021-06-20 17:06:20 GMT 26.069380 -80.340782 1,900 34 211 928
2021-06-20 17:06:19 GMT 26.068630 -80.341476 1,900 34 211 928
2021-06-20 17:06:17 GMT 26.067989 -80.343582 1,800 22 210 -256
2021-06-20 17:06:16 GMT 26.067129 -80.344070 1,800 22 210 -256
2021-06-20 17:06:15 GMT 26.066271 -80.344566 1,800 22 210 -256
2021-06-20 17:06:13 GMT 26.064840 -80.346413 1,800 11 202 -256
2021-06-20 17:06:12 GMT 26.063940 -80.346710 1,800 11 202 -256
2021-06-20 17:06:10 GMT 26.062149 -80.347313 1,800 11 202 -256
2021-06-20 17:06:09 GMT 26.061750 -80.349548 1,900 359 205 320
2021-06-20 17:06:08 GMT 26.060801 -80.349564 1,900 359 205 320
2021-06-20 17:06:06 GMT 26.058901 -80.349564 1,900 359 205 320
2021-06-20 17:06:05 GMT 26.057940 -80.349564 1,900 359 205 320
2021-06-20 17:06:03 GMT 26.056290 -80.350166 1,800 356 208 -1024
2021-06-20 17:06:02 GMT 26.055321 -80.350113 1,800 356 208 -1024
2021-06-20 17:06:00 GMT 26.053391 -80.349998 1,800 356 208 -1024
2021-06-20 17:05:59 GMT 26.052420 -80.350128 1,900 355 198 0
2021-06-20 17:05:58 GMT 26.050579 -80.349968 1,900 355 198 0
2021-06-20 17:05:56 GMT 26.049660 -80.349892 1,900 355 198 0
2021-06-20 17:05:55 GMT 26.048790 -80.349701 1,900 356 200 0
2021-06-20 17:05:54 GMT 26.046940 -80.349571 1,900 356 200 0
2021-06-20 17:05:52 GMT 26.046009 -80.349510 1,900 356 200 0
2021-06-20 17:05:51 GMT 26.045080 -80.349442 1,900 356 200 0
2021-06-20 17:05:49 GMT 26.043150 -80.349274 1,900 356 200 0
2021-06-20 17:05:48 GMT 26.041300 -80.349136 1,900 356 200 0
2021-06-20 17:05:46 GMT 26.040371 -80.349083 1,900 356 200 0
2021-06-20 17:05:45 GMT 26.039820 -80.348831 1,900 357 210 0
2021-06-20 17:05:43 GMT 26.037870 -80.348740 1,900 357 210 0
2021-06-20 17:05:42 GMT 26.036900 -80.348686 1,900 357 210 0
2021-06-20 17:05:40 GMT 26.035210 -80.348259 1,900 357 215 0
2021-06-20 17:05:39 GMT 26.034220 -80.348228 1,900 357 215 0
2021-06-20 17:05:38 GMT 26.033220 -80.348213 1,900 357 215 0
2021-06-20 17:05:37 GMT 26.031719 -80.348213 1,900 353 223 0
2021-06-20 17:05:35 GMT 26.030689 -80.348129 1,900 353 223 0
2021-06-20 17:05:34 GMT 26.029659 -80.348053 1,900 353 223 0
2021-06-20 17:05:33 GMT 26.028271 -80.348198 1,900 346 231 0
2021-06-20 17:05:31 GMT 26.027210 -80.348022 1,900 346 231 0
2021-06-20 17:05:30 GMT 26.025101 -80.347656 1,900 346 231 0
2021-06-20 17:05:28 GMT 26.024040 -80.347481 1,900 346 231 0
2021-06-20 17:05:27 GMT 26.023069 -80.348129 1,900 336 227 0
2021-06-20 17:05:25 GMT 26.021070 -80.347389 1,900 336 227 0
2021-06-20 17:05:24 GMT 26.020069 -80.347008 1,900 336 227 0
2021-06-20 17:05:22 GMT 26.018000 -80.347168 1,900 325 226 0
2021-06-20 17:05:21 GMT 26.017090 -80.346603 1,900 325 226 0
2021-06-20 17:05:20 GMT 26.016180 -80.346024 1,900 325 226 0
2021-06-20 17:05:19 GMT 26.013889 -80.345451 1,900 314 218 192
2021-06-20 17:05:17 GMT 26.013109 -80.344742 1,900 314 218 192
2021-06-20 17:05:16 GMT 26.012329 -80.344032 1,900 314 218 192
2021-06-20 17:05:15 GMT 26.010771 -80.342598 1,900 314 218 192
2021-06-20 17:05:13 GMT 26.008940 -80.342613 1,900 301 212 192
2021-06-20 17:05:12 GMT 26.008360 -80.341743 1,900 301 212 192
2021-06-20 17:05:11 GMT 26.007780 -80.340858 1,900 301 212 192
2021-06-20 17:05:09 GMT 26.006611 -80.339111 1,900 301 212 192
2021-06-20 17:05:08 GMT 26.005119 -80.338562 1,900 289 209 192
2021-06-20 17:05:07 GMT 26.004721 -80.337578 1,900 289 209 192
2021-06-20 17:05:06 GMT 26.003910 -80.335632 1,900 289 209 192
2021-06-20 17:05:04 GMT 26.002310 -80.334892 1,800 278 210 -32
2021-06-20 17:05:02 GMT 26.001860 -80.332787 1,800 278 210 -32
2021-06-20 17:05:00 GMT 26.001419 -80.330688 1,800 278 210 -32
2021-06-20 17:04:59 GMT 25.999201 -80.329857 1,900 267 220 -32
2021-06-20 17:04:57 GMT 25.999260 -80.327599 1,900 267 220 -32
2021-06-20 17:04:56 GMT 25.999290 -80.326469 1,900 267 220 -32
2021-06-20 17:04:55 GMT 25.998619 -80.325562 1,900 265 226 256
2021-06-20 17:04:53 GMT 25.998770 -80.323250 1,900 265 226 256
2021-06-20 17:04:52 GMT 25.998850 -80.322090 1,900 265 226 256
2021-06-20 17:04:51 GMT 25.998930 -80.320930 1,900 265 226 256
2021-06-20 17:04:49 GMT 25.998940 -80.318626 1,900 265 227 256
2021-06-20 17:04:48 GMT 25.999029 -80.317459 1,900 265 227 256
2021-06-20 17:04:47 GMT 25.999109 -80.316299 1,900 265 227 256
2021-06-20 17:04:45 GMT 25.999229 -80.314072 1,800 265 229 256
2021-06-20 17:04:44 GMT 25.999319 -80.312897 1,800 265 229 256
2021-06-20 17:04:42 GMT 25.999500 -80.310562 1,800 265 229 256
2021-06-20 17:04:41 GMT 25.999640 -80.309219 1,800 265 226 -864
2021-06-20 17:04:40 GMT 25.999809 -80.306908 1,800 265 226 -864
2021-06-20 17:04:38 GMT 25.999901 -80.305748 1,800 265 226 -864
2021-06-20 17:04:37 GMT 25.999981 -80.304588 1,800 265 226 -864
2021-06-20 17:04:36 GMT 26.000111 -80.302383 1,800 265 228 -864
2021-06-20 17:04:34 GMT 26.000290 -80.300041 1,800 265 228 -864
2021-06-20 17:04:32 GMT 26.000380 -80.298882 1,800 265 228 -864
2021-06-20 17:04:31 GMT 26.000481 -80.297569 1,800 265 226 -864
2021-06-20 17:04:30 GMT 26.000561 -80.296417 1,800 265 226 -864
2021-06-20 17:04:28 GMT 26.000740 -80.294098 1,800 265 226 -864
2021-06-20 17:04:26 GMT 26.000879 -80.291687 1,900 265 224 288
2021-06-20 17:04:25 GMT 26.000971 -80.290543 1,900 265 224 288
2021-06-20 17:04:24 GMT 26.001060 -80.289391 1,900 265 224 288
2021-06-20 17:04:23 GMT 26.001150 -80.288239 1,900 265 224 288
2021-06-20 17:04:21 GMT 26.001551 -80.286041 1,900 266 228 288
2021-06-20 17:04:20 GMT 26.001690 -80.283707 1,900 266 228 288
2021-06-20 17:04:18 GMT 26.001610 -80.282318 1,900 265 220 288
2021-06-20 17:04:17 GMT 26.001690 -80.281189 1,900 265 220 288
2021-06-20 17:04:16 GMT 26.001780 -80.280067 1,900 265 220 288
2021-06-20 17:04:14 GMT 26.001940 -80.277809 1,900 265 220 288
2021-06-20 17:04:13 GMT 26.002340 -80.276108 1,900 267 209 -832
2021-06-20 17:04:12 GMT 26.002430 -80.273972 1,900 267 209 -832
2021-06-20 17:04:10 GMT 26.002480 -80.272903 1,900 267 209 -832
2021-06-20 17:04:09 GMT 26.002520 -80.271820 1,900 267 209 -832
2021-06-20 17:04:07 GMT 26.002689 -80.269508 1,900 266 207 -832
2021-06-20 17:04:06 GMT 26.002741 -80.268448 1,900 266 207 -832
2021-06-20 17:04:05 GMT 26.002781 -80.267387 1,900 266 207 -832
2021-06-20 17:04:03 GMT 26.002689 -80.265472 1,900 264 218 -832
2021-06-20 17:04:02 GMT 26.002781 -80.264351 1,900 264 218 -832
2021-06-20 17:04:00 GMT 26.002951 -80.261162 2,000 263 224 -832
2021-06-20 17:03:58 GMT 26.003180 -80.258873 2,000 263 224 -832
2021-06-20 17:03:56 GMT 26.003290 -80.257721 2,000 263 224 -832
2021-06-20 17:03:55 GMT 26.003410 -80.256554 2,000 264 223 -416
2021-06-20 17:03:54 GMT 26.003500 -80.255470 2,100 263 226 -416
2021-06-20 17:03:53 GMT 26.003710 -80.253143 2,100 263 225 -416
2021-06-20 17:03:51 GMT 26.003851 -80.251991 2,100 263 226 -416
2021-06-20 17:03:50 GMT 26.003950 -80.250862 2,100 263 227 -416
2021-06-20 17:03:49 GMT 26.004181 -80.248543 2,100 263 226 -416
2021-06-20 17:03:47 GMT 26.004290 -80.247368 2,100 263 226 -416
2021-06-20 17:03:46 GMT 26.004419 -80.246208 2,100 263 225 -416
2021-06-20 17:03:44 GMT 26.004641 -80.243919 2,200 263 226 -416
2021-06-20 17:03:43 GMT 26.004770 -80.242737 2,200 263 224 -416
2021-06-20 17:03:42 GMT 26.004881 -80.241592 2,200 263 223 -416
2021-06-20 17:03:40 GMT 26.005110 -80.239319 2,200 264 223 -416
2021-06-20 17:03:38 GMT 26.005341 -80.237030 2,200 264 222 -416
2021-06-20 17:03:37 GMT 26.005440 -80.235878 2,200 264 221 -416
2021-06-20 17:03:35 GMT 26.005630 -80.233612 2,300 264 220 -416
2021-06-20 17:03:34 GMT 26.005739 -80.232498 2,300 264 221 -416
2021-06-20 17:03:33 GMT 26.005840 -80.231361 2,300 264 220 -416
2021-06-20 17:03:31 GMT 26.006050 -80.229141 2,400 264 223 -416
2021-06-20 17:03:30 GMT 26.006149 -80.227982 2,400 265 223 -416
2021-06-20 17:03:29 GMT 26.006241 -80.226868 2,400 265 224 -416
2021-06-20 17:03:27 GMT 26.006430 -80.224571 2,400 265 223 -416
2021-06-20 17:03:26 GMT 26.006510 -80.223450 2,400 265 225 -416
2021-06-20 17:03:25 GMT 26.006680 -80.221169 2,400 265 226 -416
2021-06-20 17:03:23 GMT 26.006769 -80.219978 2,400 265 224 -416
2021-06-20 17:03:22 GMT 26.006840 -80.218849 2,400 265 225 -416
2021-06-20 17:03:20 GMT 26.007021 -80.216537 2,400 266 224 -416
2021-06-20 17:03:19 GMT 26.007080 -80.215408 2,400 266 225 -416
2021-06-20 17:03:17 GMT 26.007219 -80.213089 2,500 266 225 -416
2021-06-20 17:03:16 GMT 26.007271 -80.211937 2,500 266 224 -416
2021-06-20 17:03:15 GMT 26.007330 -80.210800 2,500 266 225 -416
2021-06-20 17:03:13 GMT 26.007441 -80.208527 2,500 267 227 -416
2021-06-20 17:03:12 GMT 26.007490 -80.207352 2,500 267 226 -416
2021-06-20 17:03:11 GMT 26.007540 -80.206169 2,500 267 224 -416
2021-06-20 17:03:09 GMT 26.007610 -80.203842 2,500 268 222 -416
2021-06-20 17:03:08 GMT 26.007629 -80.201599 2,600 269 225 -416
2021-06-20 17:03:07 GMT 26.007660 -80.200439 2,600 270 225 -416
2021-06-20 17:03:05 GMT 26.007669 -80.199287 2,600 271 225 -416
2021-06-20 17:03:04 GMT 26.007669 -80.198112 2,600 272 224 -416
2021-06-20 17:03:03 GMT 26.007660 -80.196960 2,600 274 224 -416
2021-06-20 17:03:01 GMT 26.007610 -80.194679 2,600 276 225 -416
2021-06-20 17:03:00 GMT 26.007540 -80.193497 2,600 277 224 -416
2021-06-20 17:02:58 GMT 26.007320 -80.191200 2,600 279 224 -416
2021-06-20 17:02:57 GMT 26.007210 -80.190063 2,600 279 224 -416
2021-06-20 17:02:56 GMT 26.006920 -80.187813 2,600 280 226 -416
2021-06-20 17:02:54 GMT 26.006729 -80.186691 2,700 280 228 -32
2021-06-20 17:02:53 GMT 26.006531 -80.185547 2,700 280 228 -32
2021-06-20 17:02:51 GMT 26.006140 -80.183243 2,700 281 228 -32
2021-06-20 17:02:49 GMT 26.005720 -80.180931 2,700 281 226 -32
2021-06-20 17:02:48 GMT 26.005520 -80.179802 2,700 281 228 -32
2021-06-20 17:02:47 GMT 26.005329 -80.178642 2,700 281 227 -32
2021-06-20 17:02:45 GMT 26.004910 -80.176376 2,700 281 229 -32
2021-06-20 17:02:44 GMT 26.004709 -80.175232 2,700 281 229 -32
2021-06-20 17:02:43 GMT 26.004320 -80.172920 2,700 281 230 -32
2021-06-20 17:02:41 GMT 26.004101 -80.171738 2,700 281 228 -32
2021-06-20 17:02:40 GMT 26.003889 -80.170624 2,800 281 230 -32
2021-06-20 17:02:39 GMT 26.003691 -80.169456 2,800 281 229 -32
2021-06-20 17:02:37 GMT 26.003269 -80.167137 2,800 281 228 -32
2021-06-20 17:02:36 GMT 26.003071 -80.165970 2,800 281 227 -32
2021-06-20 17:02:34 GMT 26.002640 -80.163696 2,800 280 228 -32
2021-06-20 17:02:32 GMT 26.002251 -80.161362 2,800 280 225 -32
2021-06-20 17:02:31 GMT 26.002060 -80.160233 2,800 280 226 -32
2021-06-20 17:02:30 GMT 26.001869 -80.159081 2,800 280 225 -32
2021-06-20 17:02:29 GMT 26.001671 -80.157951 2,800 280 225 -32
2021-06-20 17:02:28 GMT 26.001459 -80.156799 2,800 280 224 -32
2021-06-20 17:02:26 GMT 26.001070 -80.154549 2,900 280 225 -32
2021-06-20 17:02:25 GMT 26.000681 -80.152283 2,900 281 225 -32
2021-06-20 17:02:23 GMT 26.000490 -80.151161 2,900 281 226 -32
2021-06-20 17:02:22 GMT 26.000280 -80.150017 2,900 280 226 -32
2021-06-20 17:02:21 GMT 26.000059 -80.148888 2,900 280 226 -32
2021-06-20 17:02:20 GMT 25.999670 -80.146591 2,900 280 224 -32
2021-06-20 17:02:18 GMT 25.999491 -80.145462 2,900 281 224 -32
2021-06-20 17:02:16 GMT 25.999100 -80.143188 2,900 281 225 -32
2021-06-20 17:02:15 GMT 25.998911 -80.142059 2,900 281 225 -32
2021-06-20 17:02:14 GMT 25.998489 -80.139801 2,900 280 225 -32
2021-06-20 17:02:12 GMT 25.998280 -80.138702 2,900 280 226 -32
2021-06-20 17:02:11 GMT 25.998070 -80.137550 2,900 280 225 -32
2021-06-20 17:02:09 GMT 25.997700 -80.135246 2,900 280 225 256
2021-06-20 17:02:08 GMT 25.997499 -80.134132 2,900 280 226 256
2021-06-20 17:02:06 GMT 25.997101 -80.131882 2,800 280 228 256
2021-06-20 17:02:05 GMT 25.996920 -80.130722 2,800 280 227 256
2021-06-20 17:02:03 GMT 25.996519 -80.128448 2,800 280 229 256
2021-06-20 17:02:02 GMT 25.996330 -80.127296 2,800 280 229 256
2021-06-20 17:02:01 GMT 25.996130 -80.126160 2,800 280 230 256
2021-06-20 17:02:00 GMT 25.995930 -80.125008 2,800 280 231 256
2021-06-20 17:01:58 GMT 25.995560 -80.122673 2,800 280 230 64
2021-06-20 17:01:56 GMT 25.995159 -80.120331 2,800 280 229 64
2021-06-20 17:01:55 GMT 25.994961 -80.119179 2,800 280 230 -128
2021-06-20 17:01:54 GMT 25.994761 -80.118011 2,800 280 231 -128
2021-06-20 17:01:53 GMT 25.994570 -80.116882 2,800 280 234 -32
2021-06-20 17:01:51 GMT 25.994181 -80.114502 2,800 280 235 -32
2021-06-20 17:01:50 GMT 25.993999 -80.113297 2,800 280 235 -32
2021-06-20 17:01:48 GMT 25.993610 -80.110947 2,800 280 240 0
2021-06-20 17:01:47 GMT 25.993420 -80.109749 2,800 280 241 0
2021-06-20 17:01:45 GMT 25.993040 -80.107300 2,800 279 241 -96
2021-06-20 17:01:44 GMT 25.992861 -80.106102 2,900 279 244 64
2021-06-20 17:01:42 GMT 25.992491 -80.103630 2,900 279 245 64
2021-06-20 17:01:41 GMT 25.992319 -80.102379 2,900 278 244 0
2021-06-20 17:01:40 GMT 25.992130 -80.101143 2,900 278 245 -160
2021-06-20 17:01:38 GMT 25.991791 -80.098671 2,900 276 248 -160
2021-06-20 17:01:37 GMT 25.991640 -80.097427 2,900 276 250 -160
2021-06-20 17:01:35 GMT 25.991360 -80.094856 2,900 274 250 -1216
2021-06-20 17:01:34 GMT 25.991199 -80.093620 2,900 273 253 -1216
2021-06-20 17:01:32 GMT 25.991020 -80.091072 2,900 272 256 -1216
2021-06-20 17:01:31 GMT 25.990931 -80.089752 2,900 272 256 -1216
2021-06-20 17:01:29 GMT 25.990829 -80.087128 2,900 271 256 -1216
2021-06-20 17:01:28 GMT 25.990749 -80.085831 2,900 271 257 -1216
2021-06-20 17:01:27 GMT 25.990709 -80.084518 2,900 271 258 -1216
2021-06-20 17:01:25 GMT 25.990650 -80.081886 2,900 271 263 -1216
2021-06-20 17:01:22 GMT 25.990570 -80.077904 2,900 271 262 -1216
2021-06-20 17:01:21 GMT 25.990530 -80.076591 2,900 271 264 -1216
2021-06-20 17:01:19 GMT 25.990440 -80.073868 2,900 271 263 -1216
2021-06-20 17:01:18 GMT 25.990431 -80.072487 2,900 271 261 -1216
2021-06-20 17:01:17 GMT 25.990360 -80.069847 3,100 271 271 -1216
2021-06-20 17:01:13 GMT 25.990265 -80.064316 2,975 272 266 -896
2021-06-20 17:01:10 GMT 25.990173 -80.060738 3,025 272 267 -1088
2021-06-20 17:01:05 GMT 25.989975 -80.053619 3,125 272 267 -1536
2021-06-20 17:01:02 GMT 25.989927 -80.050926 3,175 272 267 -1536
2021-06-20 17:00:59 GMT 25.989836 -80.046654 3,575 272 267 -1600
2021-06-20 17:00:51 GMT 25.989532 -80.035194 3,475 272 267 -1536
2021-06-20 17:00:48 GMT 25.989441 -80.031929 3,525 272 267 -1472
2021-06-20 17:00:39 GMT 25.989138 -80.018234 3,725 272 269 -1024
2021-06-20 17:00:33 GMT 25.988997 -80.010574 3,800 272 270 -576
2021-06-20 17:00:27 GMT 25.988857 -80.003548 3,825 272 271 -256
2021-06-20 17:00:23 GMT 25.988754 -79.996895 3,825 271 271 -64
2021-06-20 17:00:20 GMT 25.988718 -79.992088 3,850 271 271 -64
2021-06-20 17:00:17 GMT 25.988670 -79.988655 3,850 271 271 -64
2021-06-20 17:00:11 GMT 25.988531 -79.980789 3,850 272 270 0
2021-06-20 17:00:07 GMT 25.988434 -79.974922 3,850 272 270 0
2021-06-20 16:59:59 GMT 25.988113 -79.963211 3,850 274 270 128
2021-06-20 16:59:55 GMT 25.987833 -79.958862 3,825 276 270 128
2021-06-20 16:59:51 GMT 25.987015 -79.953316 3,825 284 270 0
2021-06-20 16:59:47 GMT 25.985132 -79.946404 3,850 292 271 -64
2021-06-20 16:59:42 GMT 25.982574 -79.939896 3,850 296 271 0
2021-06-20 16:59:36 GMT 25.979687 -79.933090 3,850 296 272 0
2021-06-20 16:59:31 GMT 25.977173 -79.927177 3,850 296 272 0
2021-06-20 16:59:25 GMT 25.974239 -79.920258 3,850 296 272 0
2021-06-20 16:59:20 GMT 25.971214 -79.913124 3,850 296 272 0
2021-06-20 16:59:15 GMT 25.964558 -79.897438 3,850 296 272 0
2021-06-20 16:59:08 GMT 25.964558 -79.897438 3,850 296 272 0
2021-06-20 16:59:05 GMT 25.963068 -79.894005 3,850 296 272 0
2021-06-20 16:58:59 GMT 25.959949 -79.886612 3,850 296 272 0
2021-06-20 16:58:54 GMT 25.956665 -79.878899 3,850 296 272 0
2021-06-20 16:58:49 GMT 25.954422 -79.873665 3,850 296 272 0
2021-06-20 16:58:43 GMT 25.951242 -79.866173 3,850 296 273 0
2021-06-20 16:58:39 GMT 25.949203 -79.861382 3,850 296 274 0
2021-06-20 16:58:33 GMT 25.945999 -79.853813 3,850 296 274 0
2021-06-20 16:58:28 GMT 25.943468 -79.847946 3,850 296 274 0
2021-06-20 16:58:24 GMT 25.940506 -79.841019 3,850 296 274 0
2021-06-20 16:58:18 GMT 25.937439 -79.833763 3,850 296 274 0
2021-06-20 16:58:13 GMT 25.934578 -79.827133 3,850 296 274 0
2021-06-20 16:58:03 GMT 25.929245 -79.814690 3,850 296 274 0
2021-06-20 16:57:51 GMT 25.923019 -79.799973 3,850 296 274 0
2021-06-20 16:57:39 GMT 25.916199 -79.784111 3,850 296 273 0
2021-06-20 16:57:29 GMT 25.910522 -79.770851 3,850 296 273 0
2021-06-20 16:57:19 GMT 25.905579 -79.759499 3,850 296 275 0
2021-06-20 16:57:09 GMT 25.899811 -79.746178 3,850 296 275 0
2021-06-20 16:57:05 GMT 25.897243 -79.740250 3,850 296 275 0
2021-06-20 16:56:58 GMT 25.894310 -79.733490 3,850 296 275 0
2021-06-20 16:56:55 GMT 25.892588 -79.729523 3,850 296 274 -64
2021-06-20 16:56:49 GMT 25.888630 -79.720444 3,850 296 274 0
2021-06-20 16:56:46 GMT 25.886856 -79.716278 3,850 296 274 0
2021-06-20 16:56:35 GMT 25.881317 -79.703270 3,850 296 274 0
2021-06-20 16:56:22 GMT 25.874199 -79.686371 3,850 295 276 0
2021-06-20 16:56:17 GMT 25.871704 -79.680260 3,850 295 276 0
2021-06-20 16:55:29 GMT 25.832535 -79.631020 3,850 352 279 -64
2021-06-20 16:55:18 GMT 25.819656 -79.629723 3,850 358 279 0
2021-06-20 16:55:13 GMT 25.811586 -79.629318 3,850 358 279 0
2021-06-20 16:54:44 GMT 25.773788 -79.627434 3,850 358 279 0
2021-06-20 16:54:41 GMT 25.771086 -79.627296 3,850 358 280 0
2021-06-20 16:54:26 GMT 25.750324 -79.626213 3,850 358 280 0
2021-06-20 16:54:17 GMT 25.740082 -79.625694 3,850 358 279 0
2021-06-20 16:54:12 GMT 25.733797 -79.625328 3,850 358 279 0
2021-06-20 16:54:08 GMT 25.728537 -79.625069 3,850 358 279 0
2021-06-20 16:53:53 GMT 25.708328 -79.624077 3,850 358 278 0
2021-06-20 16:53:43 GMT 25.694927 -79.623413 3,850 358 278 0
2021-06-20 16:53:05 GMT 25.646326 -79.621078 3,850 358 278 0
2021-06-20 16:52:58 GMT 25.636131 -79.620560 3,850 358 278 0
2021-06-20 16:52:25 GMT 25.594803 -79.618477 3,850 358 279 0
2021-06-20 16:52:17 GMT 25.583542 -79.617920 3,850 358 280 -64
2021-06-20 16:51:39 GMT 25.535706 -79.615479 3,850 358 282 0
2021-06-20 16:51:34 GMT 25.527990 -79.615120 3,850 358 282 0
2021-06-20 16:51:25 GMT 25.517469 -79.614601 3,850 358 282 0
2021-06-20 16:51:16 GMT 25.503410 -79.613930 3,850 358 281 0
2021-06-20 16:51:02 GMT 25.485954 -79.613098 3,850 358 280 64
2021-06-20 16:50:40 GMT 25.458767 -79.611809 3,825 358 280 0
2021-06-20 16:50:32 GMT 25.447083 -79.611259 3,850 358 280 0
2021-06-20 16:50:21 GMT 25.433395 -79.610649 3,850 358 280 0
2021-06-20 16:50:11 GMT 25.419617 -79.609932 3,850 358 286 0
2021-06-20 16:49:59 GMT 25.404739 -79.609169 3,850 358 293 0
2021-06-20 16:49:53 GMT 25.395555 -79.609169 4,000 356 306
2021-06-20 16:49:28 GMT 25.355556 -79.606667 4,000 357 351
2021-06-20 16:45:51 GMT 25.008179 -79.555664 4,650 350 330 -1792
2021-06-20 16:45:35 GMT 24.983562 -79.550705 5,150 350 333 -1920
2021-06-20 16:45:26 GMT 24.970871 -79.548187 5,425 350 334 -2112
2021-06-20 16:45:22 GMT 24.964615 -79.546974 5,550 350 336 -1728
2021-06-20 16:45:08 GMT 24.941898 -79.542572 5,800 350 340 -448
2021-06-20 16:44:23 GMT 24.859167 -79.519165 6,500 342 349
2021-06-20 16:43:21 GMT 24.766945 -79.489998 8,000 340 352
2021-06-20 16:42:20 GMT 24.671944 -79.460281 9,400 338 363
2021-06-20 16:41:19 GMT 24.576389 -79.422218 10,100 337 363
2021-06-20 16:40:18 GMT 24.482500 -79.380554 10,100 337 361
2021-06-20 16:39:17 GMT 24.390833 -79.339722 10,000 337 345
We lost coverage of the aircraft here for a total of 6 minutes
2021-06-20 16:33:45 GMT 23.909555 -79.059998 18,275 330 372 -1856
2021-06-20 16:33:37 GMT 23.897871 -79.052383 18,525 329 373 -1920
2021-06-20 16:33:07 GMT 23.851868 -79.021912 19,475 329 375 -1728
2021-06-20 16:32:57 GMT 23.837399 -79.012276 19,700 329 381 -1216
2021-06-20 16:32:36 GMT 23.805313 -78.992615 19,975 336 386 -256
2021-06-20 16:32:14 GMT 23.767639 -78.978729 20,000 345 382 0
2021-06-20 16:31:55 GMT 23.736008 -78.969002 19,975 345 382 64
2021-06-20 16:31:33 GMT 23.697929 -78.957344 20,000 345 384 -64
2021-06-20 16:31:14 GMT 23.665155 -78.947342 20,100 345 384 -832
2021-06-20 16:30:54 GMT 23.630585 -78.936714 20,600 345 389 -1792
2021-06-20 16:30:34 GMT 23.595049 -78.925728 21,200 345 393 -2048
2021-06-20 16:30:13 GMT 23.559265 -78.914742 21,950 345 392 -2048
2021-06-20 16:29:53 GMT 23.523544 -78.903709 22,575 345 396 -1984
2021-06-20 16:29:33 GMT 23.488211 -78.892876 23,275 345 397 -1920
2021-06-20 16:29:12 GMT 23.451155 -78.881584 23,850 345 404 -1728
2021-06-20 16:28:51 GMT 23.413261 -78.869934 24,500 345 407 -2112
2021-06-20 16:28:31 GMT 23.375244 -78.858269 25,200 345 410 -1792
2021-06-20 16:28:11 GMT 23.338684 -78.847046 25,925 345 411 -2176
2021-06-20 16:27:50 GMT 23.301270 -78.835640 26,575 345 416 -1792
2021-06-20 16:27:29 GMT 23.262245 -78.823753 27,225 345 421 -1792
2021-06-20 16:27:09 GMT 23.224632 -78.812202 27,800 345 427 -2048
2021-06-20 16:26:49 GMT 23.186319 -78.800507 28,625 345 427 -2496
2021-06-20 16:26:29 GMT 23.147095 -78.788506 29,300 345 432 -1856
2021-06-20 16:26:09 GMT 23.107727 -78.776619 29,975 345 435 -2432
2021-06-20 16:25:48 GMT 23.068449 -78.764702 31,075 345 429 -3520
2021-06-20 16:25:28 GMT 23.029266 -78.752846 32,125 345 423 -2432
2021-06-20 16:25:08 GMT 22.990986 -78.741302 32,925 345 423 -2496
2021-06-20 16:24:47 GMT 22.952728 -78.729622 33,675 345 421 -1984
2021-06-20 16:24:27 GMT 22.914551 -78.717842 34,000 344 424 0
2021-06-20 16:24:07 GMT 22.876190 -78.709152 34,000 357 417 64
2021-06-20 16:23:47 GMT 22.837646 -78.711395 34,000 11 414 0
2021-06-20 16:23:27 GMT 22.801146 -78.723656 34,000 24 415 -64
2021-06-20 16:23:07 GMT 22.766785 -78.745506 34,025 37 424 -64
2021-06-20 16:22:46 GMT 22.736858 -78.777214 33,975 51 439 64
2021-06-20 16:22:26 GMT 22.715071 -78.814293 34,000 64 451 0
2021-06-20 16:22:06 GMT 22.700872 -78.856812 34,000 76 456 0
2021-06-20 16:21:45 GMT 22.695333 -78.903603 33,975 89 464 64
2021-06-20 16:21:24 GMT 22.699757 -78.952431 33,975 102 470 64
2021-06-20 16:21:05 GMT 22.713135 -78.996742 34,025 114 469 -320
2021-06-20 16:20:43 GMT 22.736160 -79.038750 34,275 127 467 -1408
2021-06-20 16:20:24 GMT 22.765581 -79.072365 34,850 139 473 -1216
2021-06-20 16:20:03 GMT 22.802450 -79.100395 35,000 150 481 64
2021-06-20 16:19:43 GMT 22.844330 -79.119888 35,000 163 484 -64
2021-06-20 16:19:23 GMT 22.887733 -79.131721 35,000 166 485 0
2021-06-20 16:19:02 GMT 22.933228 -79.143410 35,000 166 485 0
2021-06-20 16:18:42 GMT 22.977768 -79.154900 35,000 166 485 0
2021-06-20 16:18:22 GMT 23.021713 -79.166229 35,000 166 484 0
2021-06-20 16:18:01 GMT 23.066820 -79.177910 35,000 166 484 0
2021-06-20 16:17:40 GMT 23.112440 -79.189758 35,000 166 484 0
2021-06-20 16:17:20 GMT 23.156246 -79.201149 35,000 166 484 0
2021-06-20 16:17:00 GMT 23.200058 -79.212524 35,000 166 484 0
2021-06-20 16:16:39 GMT 23.245859 -79.224342 35,000 166 483 0
2021-06-20 16:16:19 GMT 23.289505 -79.235649 35,000 166 483 0
2021-06-20 16:15:59 GMT 23.333843 -79.247131 35,000 166 482 0
2021-06-20 16:15:37 GMT 23.378220 -79.258667 35,000 166 482 0
2021-06-20 16:15:18 GMT 23.421827 -79.269920 35,000 166 481 0
2021-06-20 16:14:58 GMT 23.465401 -79.281006 35,000 166 481 0
2021-06-20 16:14:37 GMT 23.510927 -79.292397 35,000 166 481 0
2021-06-20 16:14:17 GMT 23.555603 -79.304100 35,000 165 480 0
2021-06-20 16:13:56 GMT 23.599796 -79.316780 35,000 165 480 0
2021-06-20 16:13:35 GMT 23.644638 -79.329781 35,000 165 480 -64
2021-06-20 16:13:16 GMT 23.686295 -79.341942 35,000 164 480 64
2021-06-20 16:12:54 GMT 23.731018 -79.355011 34,875 164 481 832
2021-06-20 16:12:48 GMT 23.748253 -79.360054 34,775 164 482 832
2021-06-20 16:12:34 GMT 23.776520 -79.368233 34,600 165 483 768
2021-06-20 16:12:15 GMT 23.818497 -79.380394 34,350 165 483 832
2021-06-20 16:12:05 GMT 23.839554 -79.386543 34,200 164 483 896
2021-06-20 16:11:52 GMT 23.867006 -79.394569 34,000 164 484 1024
2021-06-20 16:11:45 GMT 23.884371 -79.399643 33,850 165 485 1088
2021-06-20 16:11:32 GMT 23.911011 -79.407349 33,650 165 486 960
2021-06-20 16:11:19 GMT 23.940033 -79.415741 33,475 165 486 768
2021-06-20 16:11:13 GMT 23.954727 -79.420013 33,375 165 486 704
2021-06-20 16:10:53 GMT 23.994736 -79.431610 33,200 165 485 512
2021-06-20 16:10:39 GMT 24.025423 -79.440529 33,075 165 483 512
2021-06-20 16:10:36 GMT 24.031998 -79.442444 33,050 165 483 576
2021-06-20 16:10:29 GMT 24.049530 -79.447578 33,000 165 483 64
2021-06-20 16:10:19 GMT 24.067841 -79.452873 32,950 165 484 576
2021-06-20 16:10:10 GMT 24.090820 -79.459587 32,850 165 484 1152
2021-06-20 16:09:55 GMT 24.120577 -79.468254 32,575 164 486 1216
2021-06-20 16:09:52 GMT 24.127651 -79.470329 32,500 164 486 1152
2021-06-20 16:09:49 GMT 24.136139 -79.472755 32,425 165 487 1088
2021-06-20 16:09:43 GMT 24.146484 -79.475807 32,350 165 487 1088
2021-06-20 16:09:38 GMT 24.158798 -79.479424 32,250 164 488 1088
2021-06-20 16:09:33 GMT 24.169098 -79.482422 32,175 164 488 1024
2021-06-20 16:09:28 GMT 24.184120 -79.486809 32,050 164 488 1024
2021-06-20 16:09:14 GMT 24.209909 -79.494324 31,875 165 488 896
2021-06-20 16:09:09 GMT 24.220779 -79.497475 31,800 165 488 832
2021-06-20 16:09:06 GMT 24.230347 -79.500275 31,750 165 487 640
2021-06-20 16:08:58 GMT 24.246222 -79.504898 31,675 165 486 704
2021-06-20 16:08:55 GMT 24.255438 -79.507538 31,625 165 486 704
2021-06-20 16:08:52 GMT 24.259689 -79.508766 31,575 165 486 768
2021-06-20 16:08:49 GMT 24.263910 -79.510025 31,575 165 486 768
2021-06-20 16:08:43 GMT 24.279190 -79.514465 31,475 164 485 832
2021-06-20 16:08:32 GMT 24.301712 -79.521027 31,325 165 485 832
2021-06-20 16:08:29 GMT 24.324326 -79.527641 31,200 165 484 832
2021-06-20 16:08:22 GMT 24.324326 -79.527641 31,200 165 484 832
2021-06-20 16:08:09 GMT 24.350327 -79.535217 31,025 165 483 960
2021-06-20 16:08:01 GMT 24.370010 -79.540962 30,875 165 483 1088
2021-06-20 16:07:49 GMT 24.415857 -79.554283 30,275 165 484 1408
2021-06-20 16:07:40 GMT 24.415857 -79.554283 30,400 165 486 1280
2021-06-20 16:07:33 GMT 24.430710 -79.558617 30,275 164 485 704
2021-06-20 16:07:29 GMT 24.439865 -79.561310 30,225 164 486 832
2021-06-20 16:07:18 GMT 24.465820 -79.568886 30,050 164 485 960
2021-06-20 16:07:07 GMT 24.485870 -79.574791 29,900 164 485 1088
2021-06-20 16:06:58 GMT 24.507845 -79.581284 29,725 164 485 960
2021-06-20 16:06:47 GMT 24.531235 -79.588165 29,550 164 485 960
2021-06-20 16:06:37 GMT 24.554214 -79.594933 29,375 164 485 960
2021-06-20 16:06:25 GMT 24.580652 -79.602631 29,175 165 486 1088
2021-06-20 16:06:15 GMT 24.599258 -79.608055 28,975 164 485 576
2021-06-20 16:06:10 GMT 24.612215 -79.611855 28,975 164 485 576
2021-06-20 16:06:05 GMT 24.622787 -79.614967 28,950 164 484 512
2021-06-20 16:05:56 GMT 24.640732 -79.620262 28,875 165 483 512
2021-06-20 16:05:54 GMT 24.645081 -79.621498 28,850 165 483 512
2021-06-20 16:05:45 GMT 24.667007 -79.627975 28,800 164 480 384
2021-06-20 16:05:34 GMT 24.689678 -79.634659 28,700 164 479 768
2021-06-20 16:05:24 GMT 24.713058 -79.641571 28,550 164 477 576
2021-06-20 16:05:12 GMT 24.734974 -79.648079 28,400 164 477 1216
2021-06-20 16:05:02 GMT 24.758295 -79.654976 28,200 164 478 1024
2021-06-20 16:04:54 GMT 24.775242 -79.659950 28,075 164 478 1024
2021-06-20 16:04:51 GMT 24.783667 -79.662437 28,000 164 478 960
2021-06-20 16:04:40 GMT 24.806259 -79.669090 27,875 164 476 576
2021-06-20 16:04:29 GMT 24.826960 -79.675186 27,775 164 474 768
2021-06-20 16:04:20 GMT 24.848747 -79.681557 27,625 165 473 1088
2021-06-20 16:04:08 GMT 24.871536 -79.688263 27,400 165 473 1216
2021-06-20 16:03:59 GMT 24.893297 -79.694618 27,250 165 472 640
2021-06-20 16:03:47 GMT 24.915829 -79.701096 27,175 165 469 192
2021-06-20 16:03:42 GMT 24.927420 -79.704414 27,150 165 467 768
2021-06-20 16:03:38 GMT 24.937288 -79.707260 27,100 165 467 832
2021-06-20 16:03:30 GMT 24.954468 -79.712189 26,975 165 465 960
2021-06-20 16:03:26 GMT 24.960617 -79.713898 26,925 165 465 960
2021-06-20 16:03:16 GMT 24.980896 -79.719749 26,775 165 464 960
2021-06-20 16:03:09 GMT 24.998692 -79.724884 26,650 165 463 768
2021-06-20 16:03:06 GMT 25.003067 -79.726128 26,625 165 463 704
2021-06-20 16:02:58 GMT 25.019918 -79.731049 26,500 165 460 832
2021-06-20 16:02:55 GMT 25.026297 -79.732918 26,500 165 460 768
2021-06-20 16:02:48 GMT 25.040682 -79.737160 26,375 164 459 1216
2021-06-20 16:02:45 GMT 25.048096 -79.739326 26,300 164 460 1408
2021-06-20 16:02:38 GMT 25.062700 -79.743690 26,125 165 460 1536
2021-06-20 16:02:33 GMT 25.071030 -79.746040 26,025 166 460 1472
2021-06-20 16:02:29 GMT 25.079832 -79.748047 25,925 171 461 1344
2021-06-20 16:02:26 GMT 25.084301 -79.748878 25,725 177 462 1024
2021-06-20 16:02:23 GMT 25.093185 -79.750114 25,800 174 462 1152
2021-06-20 16:02:16 GMT 25.106228 -79.750999 25,650 181 462 960
2021-06-20 16:02:12 GMT 25.114653 -79.750946 25,625 183 461 960
2021-06-20 16:02:07 GMT 25.128153 -79.750015 25,525 187 460 832
2021-06-20 16:02:03 GMT 25.136671 -79.748825 25,475 190 459 704
2021-06-20 16:01:56 GMT 25.149902 -79.745995 25,425 195 456 576
2021-06-20 16:01:51 GMT 25.158504 -79.743645 25,375 196 456 640
2021-06-20 16:01:46 GMT 25.171539 -79.739235 25,300 199 454 896
2021-06-20 16:01:42 GMT 25.178604 -79.736427 25,225 201 453 1152
2021-06-20 16:01:35 GMT 25.191971 -79.730583 25,075 203 453 1408
2021-06-20 16:01:30 GMT 25.199797 -79.726898 24,975 203 453 1280
2021-06-20 16:01:27 GMT 25.207199 -79.723427 24,900 204 453 1216
2021-06-20 16:01:24 GMT 25.212971 -79.720734 24,825 204 452 1152
2021-06-20 16:01:21 GMT 25.220169 -79.717354 24,800 204 452 960
2021-06-20 16:01:15 GMT 25.232151 -79.711716 24,700 204 451 768
2021-06-20 16:01:10 GMT 25.241926 -79.707108 24,650 204 449 640
2021-06-20 16:01:06 GMT 25.247700 -79.704414 24,600 204 448 640
2021-06-20 16:01:01 GMT 25.255737 -79.700623 24,550 204 447 704
2021-06-20 16:00:58 GMT 25.261898 -79.697723 24,150 204 446 832
2021-06-20 16:00:54 GMT 25.269287 -79.694214 24,450 204 445 1152
2021-06-20 16:00:51 GMT 25.274839 -79.691612 24,400 204 445 1216
2021-06-20 16:00:46 GMT 25.285826 -79.686378 24,250 204 445 1408
2021-06-20 16:00:41 GMT 25.295881 -79.681664 24,125 204 445 1536
2021-06-20 16:00:38 GMT 25.301094 -79.679176 24,075 204 444 1664
2021-06-20 16:00:34 GMT 25.306868 -79.676476 23,975 204 444 1664
2021-06-20 16:00:28 GMT 25.320969 -79.669853 23,800 204 444 1216
2021-06-20 16:00:23 GMT 25.329163 -79.665985 23,725 204 444 1152
2021-06-20 16:00:20 GMT 25.333681 -79.663834 23,675 204 444 1088
2021-06-20 16:00:14 GMT 25.346296 -79.657875 23,550 204 443 1024
2021-06-20 16:00:10 GMT 25.353188 -79.654610 23,500 204 442 896
2021-06-20 16:00:07 GMT 25.360748 -79.651085 23,450 204 442 896
2021-06-20 16:00:04 GMT 25.365280 -79.648949 23,400 204 441 1024
2021-06-20 15:59:56 GMT 25.380753 -79.641724 23,225 203 440 1472
2021-06-20 15:59:53 GMT 25.385925 -79.639336 23,150 203 440 1600
2021-06-20 15:59:49 GMT 25.395037 -79.635071 23,025 203 441 1664
2021-06-20 15:59:46 GMT 25.399832 -79.632896 22,950 203 441 1600
2021-06-20 15:59:43 GMT 25.404007 -79.630943 22,900 203 441 1536
2021-06-20 15:59:35 GMT 25.419617 -79.623619 22,700 204 441 1216
2021-06-20 15:59:32 GMT 25.424273 -79.621445 22,675 204 441 1088
2021-06-20 15:59:28 GMT 25.431931 -79.617867 22,575 204 439 832
2021-06-20 15:59:25 GMT 25.439680 -79.614243 22,550 204 439 832
2021-06-20 15:59:18 GMT 25.458906 -79.605171 22,450 204 435 768
2021-06-20 15:59:14 GMT 25.458906 -79.605171 22,425 204 435 704
2021-06-20 15:59:03 GMT 25.478367 -79.596100 22,250 203 432 1088
2021-06-20 15:58:56 GMT 25.492950 -79.589287 22,125 203 431 832
2021-06-20 15:58:52 GMT 25.498987 -79.586517 22,100 203 429 768
2021-06-20 15:58:49 GMT 25.506638 -79.582924 22,025 203 427 1152
2021-06-20 15:58:43 GMT 25.517944 -79.577637 21,900 204 427 1088
2021-06-20 15:58:36 GMT 25.528839 -79.572502 21,800 204 425 960
2021-06-20 15:58:32 GMT 25.536118 -79.569092 21,750 204 424 1024
2021-06-20 15:58:24 GMT 25.551636 -79.561668 21,575 204 422 1216
2021-06-20 15:58:21 GMT 25.555037 -79.560036 21,450 204 421 1280
2021-06-20 15:58:17 GMT 25.563463 -79.555992 21,450 204 421 1280
2021-06-20 15:58:14 GMT 25.569031 -79.553322 21,375 204 420 1344
2021-06-20 15:58:11 GMT 25.584732 -79.545799 21,250 204 420 1280
2021-06-20 15:58:06 GMT 25.584732 -79.545799 21,200 204 420 1024
2021-06-20 15:58:00 GMT 25.593521 -79.541573 21,125 204 418 704
2021-06-20 15:57:55 GMT 25.602219 -79.537407 21,075 204 415 192
2021-06-20 15:57:50 GMT 25.610853 -79.533241 21,050 204 412 384
2021-06-20 15:57:42 GMT 25.625332 -79.526352 20,950 204 409 1088
2021-06-20 15:57:39 GMT 25.630777 -79.523811 20,875 204 408 1472
2021-06-20 15:57:33 GMT 25.644650 -79.517281 20,625 203 409 2176
2021-06-20 15:57:30 GMT 25.648329 -79.515572 20,550 203 409 2368
2021-06-20 15:57:24 GMT 25.657196 -79.511467 20,325 204 411 2752
2021-06-20 15:57:19 GMT 25.665737 -79.507439 20,100 203 413 2624
2021-06-20 15:57:14 GMT 25.676584 -79.502411 19,850 203 415 2304
2021-06-20 15:57:08 GMT 25.685806 -79.498138 19,675 203 416 2176
2021-06-20 15:57:01 GMT 25.696741 -79.493080 19,450 203 416 1856
2021-06-20 15:56:58 GMT 25.702702 -79.490334 19,375 203 416 1536
2021-06-20 15:56:52 GMT 25.712814 -79.485626 19,225 203 415 1280
2021-06-20 15:56:48 GMT 25.722794 -79.480995 19,100 203 413 1280
2021-06-20 15:56:43 GMT 25.730896 -79.477180 19,000 203 412 1344
2021-06-20 15:56:37 GMT 25.739988 -79.472923 18,875 203 411 1536
2021-06-20 15:56:31 GMT 25.750231 -79.468155 18,725 203 410 1728
2021-06-20 15:56:27 GMT 25.759003 -79.464058 18,575 203 410 1792
2021-06-20 15:56:22 GMT 25.767689 -79.460014 18,425 203 409 1664
2021-06-20 15:56:18 GMT 25.774763 -79.456650 18,275 204 409 0
2021-06-20 15:56:15 GMT 25.777267 -79.455513 18,275 204 409 1536
2021-06-20 15:56:11 GMT 25.785145 -79.451775 18,175 204 407 1536
2021-06-20 15:56:05 GMT 25.795013 -79.447060 18,025 204 406 1664
2021-06-20 15:56:00 GMT 25.804184 -79.442696 17,825 204 404 1472
2021-06-20 15:55:54 GMT 25.813980 -79.438019 17,750 204 404 1472
2021-06-20 15:55:50 GMT 25.822952 -79.433693 17,600 204 402 1536
2021-06-20 15:55:43 GMT 25.833206 -79.428772 17,450 204 400 1472
2021-06-20 15:55:39 GMT 25.840122 -79.425499 17,350 204 400 1472
2021-06-20 15:55:34 GMT 25.850555 -79.420631 17,200 203 398 1472
2021-06-20 15:55:28 GMT 25.859024 -79.416801 17,075 202 397 1472
2021-06-20 15:55:21 GMT 25.870708 -79.412033 16,925 198 395 1216
2021-06-20 15:55:18 GMT 25.876900 -79.410027 16,850 193 393 1344
2021-06-20 15:55:08 GMT 25.894547 -79.407265 16,425 183 393 1600
2021-06-20 15:55:02 GMT 25.905481 -79.407593 16,450 172 393 1536
2021-06-20 15:54:59 GMT 25.912399 -79.408714 16,350 168 392 1408
2021-06-20 15:54:48 GMT 25.930252 -79.414825 16,125 154 390 1216
2021-06-20 15:54:37 GMT 25.947006 -79.425766 15,850 142 389 1984
2021-06-20 15:54:29 GMT 25.958084 -79.436958 15,575 131 390 1856
2021-06-20 15:54:25 GMT 25.963348 -79.444054 15,475 125 390 1472
2021-06-20 15:54:20 GMT 25.968567 -79.453178 15,350 117 390 1024
2021-06-20 15:54:17 GMT 25.970375 -79.456924 15,325 114 389 1024
2021-06-20 15:54:14 GMT 25.972519 -79.462105 15,275 112 388 1088
2021-06-20 15:54:10 GMT 25.974655 -79.468414 15,200 107 387 1088
2021-06-20 15:54:05 GMT 25.977034 -79.477898 15,125 102 386 1280
2021-06-20 15:54:01 GMT 25.978592 -79.489296 14,975 95 384 1664
2021-06-20 15:53:56 GMT 25.979080 -79.496964 14,850 92 384 1856
2021-06-20 15:53:53 GMT 25.979315 -79.502670 14,775 92 383 1792
2021-06-20 15:53:48 GMT 25.979687 -79.512337 14,625 92 382 1408
2021-06-20 15:53:44 GMT 25.979965 -79.519302 14,400 92 369 960
2021-06-20 15:53:40 GMT 25.980331 -79.529404 14,475 92 375 832
2021-06-20 15:53:35 GMT 25.980652 -79.537750 14,425 92 372 960
2021-06-20 15:53:32 GMT 25.980927 -79.545525 14,375 92 370 960
2021-06-20 15:53:28 GMT 25.981201 -79.552315 14,300 92 367 896
2021-06-20 15:53:24 GMT 25.981363 -79.557281 14,225 92 362 768
2021-06-20 15:53:19 GMT 25.981796 -79.569099 14,200 92 360 768
2021-06-20 15:53:15 GMT 25.982107 -79.576401 14,150 92 356 768
2021-06-20 15:53:07 GMT 25.982618 -79.590240 14,050 92 349 832
2021-06-20 15:53:03 GMT 25.982853 -79.595734 14,000 92 347 832
2021-06-20 15:52:57 GMT 25.983364 -79.608833 13,900 92 340 896
2021-06-20 15:52:53 GMT 25.983597 -79.614754 13,850 92 338 896
2021-06-20 15:52:50 GMT 25.983784 -79.619080 13,800 92 336 832
2021-06-20 15:52:44 GMT 25.984314 -79.631966 13,700 92 328 768
2021-06-20 15:52:33 GMT 25.984995 -79.648552 13,550 92 318 1024
2021-06-20 15:52:29 GMT 25.985275 -79.654976 13,475 92 316 1280
2021-06-20 15:52:25 GMT 25.985504 -79.660881 13,400 92 314 1664
2021-06-20 15:52:21 GMT 25.985878 -79.669579 13,225 92 311 1984
2021-06-20 15:52:16 GMT 25.986237 -79.677307 13,025 92 310 2176
2021-06-20 15:52:12 GMT 25.986420 -79.682228 12,925 92 310 2432
2021-06-20 15:52:09 GMT 25.986649 -79.687462 12,800 92 310 2560
2021-06-20 15:52:05 GMT 25.986923 -79.693993 12,625 92 310 2688
2021-06-20 15:52:01 GMT 25.987087 -79.698570 12,475 92 310 2688
2021-06-20 15:51:58 GMT 25.987368 -79.705284 12,300 92 310 2688
2021-06-20 15:51:52 GMT 25.987740 -79.715424 12,050 92 311 2368
2021-06-20 15:51:43 GMT 25.988113 -79.727310 11,725 91 310 2560
2021-06-20 15:51:38 GMT 25.988113 -79.735497 11,575 90 311 2432
2021-06-20 15:51:33 GMT 25.987228 -79.745003 11,350 77 310 1728
2021-06-20 15:51:30 GMT 25.986437 -79.748856 11,275 73 310 1792
2021-06-20 15:51:20 GMT 25.977451 -79.770195 10,550 54 309 2496
2021-06-20 15:51:16 GMT 25.977451 -79.770195 10,725 56 309 2560
2021-06-20 15:51:12 GMT 25.974976 -79.774269 10,575 55 309 2496
2021-06-20 15:51:08 GMT 25.970718 -79.780746 10,375 53 308 2432
2021-06-20 15:51:02 GMT 25.966419 -79.787361 10,175 55 307 2304
2021-06-20 15:50:58 GMT 25.963905 -79.791374 9,800 59 305 1984
2021-06-20 15:50:54 GMT 25.959961 -79.798157 9,875 59 305 1984
2021-06-20 15:50:51 GMT 25.958496 -79.801163 9,800 64 303 1920
2021-06-20 15:50:48 GMT 25.956757 -79.805305 9,700 68 301 2048
2021-06-20 15:50:42 GMT 25.953850 -79.815781 9,425 79 297 2560
2021-06-20 15:50:39 GMT 25.953140 -79.820854 9,150 91 297 3008
2021-06-20 15:50:34 GMT 25.952728 -79.827957 9,050 89 297 3072
2021-06-20 15:50:31 GMT 25.952780 -79.831833 8,900 94 295 2880
2021-06-20 15:50:27 GMT 25.953140 -79.836510 8,650 99 295 2624
2021-06-20 15:50:23 GMT 25.954548 -79.843613 8,575 109 292 2304
2021-06-20 15:50:20 GMT 25.955666 -79.847313 8,475 111 292 2304
2021-06-20 15:50:16 GMT 25.958040 -79.853226 8,275 116 290 2560
2021-06-20 15:50:13 GMT 25.960968 -79.858635 8,075 124 287 3008
2021-06-20 15:50:10 GMT 25.962509 -79.861046 7,975 127 288 3072
2021-06-20 15:50:06 GMT 25.965637 -79.865059 7,800 132 287 3008
2021-06-20 15:50:00 GMT 25.971176 -79.870552 7,475 144 286 2752
2021-06-20 15:49:57 GMT 25.975031 -79.873405 7,375 152 283 2752
2021-06-20 15:49:49 GMT 25.985001 -79.878273 6,975 163 282 2688
2021-06-20 15:49:45 GMT 25.990128 -79.879723 6,800 167 280 2816
2021-06-20 15:49:38 GMT 25.997934 -79.880959 6,425 173 279 3136
2021-06-20 15:49:35 GMT 26.001801 -79.881485 5,825 173 278 2816
2021-06-20 15:49:31 GMT 26.008410 -79.882385 6,075 173 278 2944
2021-06-20 15:49:25 GMT 26.015030 -79.883247 5,825 173 277 2752
2021-06-20 15:49:20 GMT 26.022171 -79.884132 5,575 173 276 2752
2021-06-20 15:49:15 GMT 26.029451 -79.885078 5,325 173 274 2816
2021-06-20 15:49:09 GMT 26.036015 -79.885872 5,075 173 273 2944
2021-06-20 15:49:03 GMT 26.044556 -79.887085 4,775 167 272 1280
2021-06-20 15:48:54 GMT 26.054775 -79.889198 4,550 165 272 960
2021-06-20 15:48:48 GMT 26.060944 -79.891541 4,475 154 273 832
2021-06-20 15:48:43 GMT 26.067169 -79.895271 4,400 140 274 832
2021-06-20 15:48:37 GMT 26.073669 -79.901131 4,300 135 274 832
2021-06-20 15:48:33 GMT 26.076237 -79.904251 4,275 128 275 768
2021-06-20 15:48:27 GMT 26.080444 -79.911133 4,200 117 276 704
2021-06-20 15:48:24 GMT 26.082779 -79.916626 4,150 110 277 640
2021-06-20 15:48:17 GMT 26.085266 -79.926964 4,075 94 278 704
2021-06-20 15:48:11 GMT 26.085800 -79.934868 4,025 91 277 704
2021-06-20 15:48:02 GMT 26.085300 -79.947762 3,700 87 274 960
2021-06-20 15:48:01 GMT 26.085251 -79.949158 3,700 87 274 960
2021-06-20 15:48:00 GMT 26.085211 -79.950569 3,700 87 274 960
2021-06-20 15:47:58 GMT 26.085110 -79.953392 3,700 87 274 960
2021-06-20 15:47:57 GMT 26.085060 -79.954788 3,700 87 274 960
2021-06-20 15:47:55 GMT 26.084970 -79.957611 3,700 87 274 960
2021-06-20 15:47:54 GMT 26.084921 -79.959023 3,700 87 274 960
2021-06-20 15:47:53 GMT 26.084869 -79.960426 3,700 87 274 1536
2021-06-20 15:47:51 GMT 26.084780 -79.963242 3,700 87 274 1536
2021-06-20 15:47:49 GMT 26.084681 -79.966057 3,700 87 274 1536
2021-06-20 15:47:48 GMT 26.084641 -79.967468 3,700 87 274 1536
2021-06-20 15:47:46 GMT 26.084539 -79.970284 3,700 87 274 1536
2021-06-20 15:47:45 GMT 26.084490 -79.971687 3,700 87 274 1536
2021-06-20 15:47:44 GMT 26.084450 -79.973099 3,700 87 274 1536
2021-06-20 15:47:42 GMT 26.084351 -79.975922 3,700 87 274 1536
2021-06-20 15:47:41 GMT 26.084299 -79.977318 3,700 87 274 1536
2021-06-20 15:47:39 GMT 26.084209 -79.980141 3,700 87 274 1536
2021-06-20 15:47:38 GMT 26.084160 -79.981552 3,700 87 274 1536
2021-06-20 15:47:37 GMT 26.084110 -79.982964 3,700 87 274 1536
2021-06-20 15:47:35 GMT 26.084021 -79.985771 3,700 87 274 1536
2021-06-20 15:47:34 GMT 26.083969 -79.987183 3,700 87 274 1536
2021-06-20 15:47:33 GMT 26.083920 -79.988586 3,700 87 274 1536
2021-06-20 15:47:31 GMT 26.083790 -79.991280 3,700 87 278 1536
2021-06-20 15:47:30 GMT 26.083740 -79.992722 3,700 87 278 1536
2021-06-20 15:47:28 GMT 26.083651 -79.995583 3,700 87 278 1536
2021-06-20 15:47:27 GMT 26.083599 -79.997009 3,700 87 278 1536
2021-06-20 15:47:26 GMT 26.083540 -79.998749 3,600 87 267 1536
2021-06-20 15:47:25 GMT 26.083500 -80.000130 3,600 87 267 1536
2021-06-20 15:47:23 GMT 26.083410 -80.002869 3,600 87 267 1536
2021-06-20 15:47:22 GMT 26.083370 -80.004242 3,600 87 267 1536
2021-06-20 15:47:20 GMT 26.083260 -80.007217 3,500 88 263 1536
2021-06-20 15:47:18 GMT 26.083179 -80.009918 3,500 88 263 1536
2021-06-20 15:47:16 GMT 26.083000 -80.012878 3,400 88 256 1536
2021-06-20 15:47:15 GMT 26.082970 -80.014191 3,400 88 256 1536
2021-06-20 15:47:13 GMT 26.082991 -80.018227 3,100 87 258 1536
2021-06-20 15:47:11 GMT 26.082890 -80.020882 3,100 87 258 1536
2021-06-20 15:47:09 GMT 26.082840 -80.022202 3,100 87 258 1536
2021-06-20 15:47:08 GMT 26.082830 -80.023117 3,100 87 268 1536
2021-06-20 15:47:07 GMT 26.082720 -80.025879 3,100 87 268 1536
2021-06-20 15:47:04 GMT 26.082609 -80.028641 3,100 87 268 1536
2021-06-20 15:47:02 GMT 26.082510 -80.031326 2,900 87 272 1536
2021-06-20 15:47:01 GMT 26.082390 -80.034149 2,900 87 268 1536
2021-06-20 15:46:59 GMT 26.082331 -80.035568 2,900 87 264 1536
2021-06-20 15:46:58 GMT 26.082279 -80.036903 2,700 87 267 1536
2021-06-20 15:46:57 GMT 26.082230 -80.038261 2,700 87 266 1536
2021-06-20 15:46:55 GMT 26.082130 -80.041023 2,700 87 262 1536
2021-06-20 15:46:54 GMT 26.082090 -80.042328 2,700 87 264 1536
2021-06-20 15:46:53 GMT 26.082041 -80.043709 2,700 87 261 1664
2021-06-20 15:46:51 GMT 26.081909 -80.046463 2,700 87 253 1664
2021-06-20 15:46:50 GMT 26.081869 -80.047752 2,700 87 255 1664
2021-06-20 15:46:49 GMT 26.081791 -80.050331 2,500 86 255 1664
2021-06-20 15:46:47 GMT 26.081730 -80.051643 2,500 86 255 1664
2021-06-20 15:46:46 GMT 26.081650 -80.053001 2,500 87 250 1664
2021-06-20 15:46:45 GMT 26.081539 -80.055550 2,500 86 249 1664
2021-06-20 15:46:43 GMT 26.081470 -80.056870 2,500 87 246 1664
2021-06-20 15:46:42 GMT 26.081381 -80.058182 2,500 87 241 1664
2021-06-20 15:46:40 GMT 26.081289 -80.060631 2,400 86 243 1664
2021-06-20 15:46:39 GMT 26.081240 -80.061890 2,400 86 241 1664
2021-06-20 15:46:37 GMT 26.081129 -80.064438 2,400 86 233 1664
2021-06-20 15:46:36 GMT 26.081060 -80.065659 2,400 86 232 1664
2021-06-20 15:46:35 GMT 26.080999 -80.066811 2,300 86 233 1664
2021-06-20 15:46:34 GMT 26.080950 -80.068031 2,300 86 232 1664
2021-06-20 15:46:32 GMT 26.080820 -80.070427 2,300 86 228 1664
2021-06-20 15:46:31 GMT 26.080759 -80.071564 2,300 86 229 1664
2021-06-20 15:46:29 GMT 26.080610 -80.073952 2,300 86 224 1664
2021-06-20 15:46:28 GMT 26.080561 -80.075150 2,300 86 221 1664
2021-06-20 15:46:26 GMT 26.080420 -80.077393 2,200 86 222 1664
2021-06-20 15:46:25 GMT 26.080370 -80.078552 2,200 86 219 1664
2021-06-20 15:46:24 GMT 26.080240 -80.080833 2,200 86 215 1664
2021-06-20 15:46:22 GMT 26.080179 -80.081970 2,200 85 214 1664
2021-06-20 15:46:21 GMT 26.080130 -80.083061 2,100 85 213 1664
2021-06-20 15:46:19 GMT 26.079960 -80.085258 2,100 86 212 1664
2021-06-20 15:46:18 GMT 26.079889 -80.086372 2,100 86 209 1664
2021-06-20 15:46:17 GMT 26.079750 -80.088501 2,100 86 210 1664
2021-06-20 15:46:15 GMT 26.079679 -80.089630 2,100 86 205 1664
2021-06-20 15:46:14 GMT 26.079630 -80.090736 2,100 86 202 1664
2021-06-20 15:46:13 GMT 26.079559 -80.091782 2,100 86 203 1664
2021-06-20 15:46:11 GMT 26.079451 -80.093872 1,900 86 201 1664
2021-06-20 15:46:10 GMT 26.079390 -80.094902 1,900 86 201 1664
2021-06-20 15:46:09 GMT 26.079290 -80.096970 1,900 85 198 1664
2021-06-20 15:46:07 GMT 26.079229 -80.097992 1,900 85 198 1664
2021-06-20 15:46:06 GMT 26.079180 -80.099022 1,900 85 198 1664
2021-06-20 15:46:05 GMT 26.079041 -80.101097 1,900 85 192 1664
2021-06-20 15:46:03 GMT 26.078960 -80.102074 1,500 85 193 1664
2021-06-20 15:46:02 GMT 26.078911 -80.103058 1,500 85 193 1664
2021-06-20 15:46:01 GMT 26.078770 -80.105049 1,500 85 192 1664
2021-06-20 15:45:59 GMT 26.078711 -80.106003 1,500 85 194 1664
2021-06-20 15:45:58 GMT 26.078630 -80.107010 1,500 85 192 1664
2021-06-20 15:45:56 GMT 26.078489 -80.108978 1,500 85 191 1664
2021-06-20 15:45:55 GMT 26.078329 -80.110924 1,500 85 190 1664
2021-06-20 15:45:53 GMT 26.078251 -80.111893 1,500 86 189 1664
2021-06-20 15:45:52 GMT 26.078190 -80.112862 1,500 86 188 1632
2021-06-20 15:45:51 GMT 26.078070 -80.114853 1,500 86 180 1632
2021-06-20 15:45:48 GMT 26.077980 -80.116730 1,100 85 179 1632
2021-06-20 15:45:46 GMT 26.077829 -80.118568 1,100 86 177 1632
2021-06-20 15:45:45 GMT 26.077789 -80.119461 1,100 85 179 1632
2021-06-20 15:45:44 GMT 26.077730 -80.120422 1,100 85 176 1632
2021-06-20 15:45:42 GMT 26.077570 -80.122238 1,100 86 174 1632
2021-06-20 15:45:41 GMT 26.077520 -80.123154 1,100 86 173 1632
2021-06-20 15:45:39 GMT 26.077431 -80.124878 900 86 175 1632
2021-06-20 15:45:38 GMT 26.077400 -80.125771 900 86 176 1632
2021-06-20 15:45:36 GMT 26.077320 -80.127602 900 85 175 1632
2021-06-20 15:45:35 GMT 26.077271 -80.128471 850 85 176 1632
2021-06-20 15:45:33 GMT 26.077150 -80.130302 650 86 173 1632
2021-06-20 15:45:32 GMT 26.077061 -80.132042 475 88 176 1632
2021-06-20 15:45:31 GMT 26.077040 -80.132973 475 87 174 1632
2021-06-20 15:45:29 GMT 26.076969 -80.133888 475 89 169 1632
2021-06-20 15:45:27 GMT 26.076910 -80.135620 300 91 171 1632
2021-06-20 15:45:26 GMT 26.076941 -80.136490 300 90 173 1632
2021-06-20 15:45:25 GMT 26.076960 -80.137367 275 89 175 1632
2021-06-20 15:45:23 GMT 26.076990 -80.139107 175 88 180 1632
2021-06-20 15:45:22 GMT 26.076950 -80.140060 75 88 176 1632
2021-06-20 15:45:21 GMT 26.076929 -80.140953 75 89 177 1632
2021-06-20 15:45:19 GMT 26.076920 -80.142761 -100 88 182 1632
2021-06-20 15:45:18 GMT 26.076880 -80.144623 -100 89 180 1632
2021-06-20 15:45:16 GMT 26.076900 -80.145508 -100 89 181 1632
2021-06-20 15:45:15 GMT 26.076839 -80.146439 -150 90 177 -192
2021-06-20 15:45:14 GMT 26.076851 -80.148262 -150 90 171 -192
2021-06-20 15:45:12 GMT 26.076851 -80.149162 -150 90 166 -192
2021-06-20 15:45:11 GMT 26.076851 -80.150009 -150 90 163 -192
2021-06-20 15:45:10 GMT 26.076860 -80.150871 -125 90 159 -192
2021-06-20 15:45:08 GMT 26.076880 -80.152489 -125 90 151 -96
2021-06-20 15:45:07 GMT 26.076880 -80.153290 -125 90 146 -96
2021-06-20 15:45:05 GMT 26.076891 -80.154762 -125 89 141 -96
2021-06-20 15:45:04 GMT 26.076920 -80.155479 -125 89 137 -96
2021-06-20 15:45:03 GMT 26.076880 -80.156212 -125 90 131 -96
2021-06-20 15:45:01 GMT 26.076870 -80.157547 -125 91 120
2021-06-20 15:45:00 GMT 26.076900 -80.158180 -125 91 116
2021-06-20 15:44:59 GMT 26.076920 -80.158783 -125 90 111
2021-06-20 15:44:57 GMT 26.076941 -80.159897 0 89 104
2021-06-20 15:44:56 GMT 26.076920 -80.160461 0 90 98
2021-06-20 15:44:55 GMT 26.076920 -80.161522 0 90 82
2021-06-20 15:44:53 GMT 26.076929 -80.161949 0 90 78
2021-06-20 15:44:52 GMT 26.076929 -80.162361 0 90 76
2021-06-20 15:44:50 GMT 26.076910 -80.163162 0 92 64
2021-06-20 15:44:49 GMT 26.076929 -80.163513 0 91 59
2021-06-20 15:44:48 GMT 26.076950 -80.163818 0 90 54
2021-06-20 15:44:46 GMT 26.076960 -80.164383 0 89 45
2021-06-20 15:44:45 GMT 26.076960 -80.164673 0 89 35
2021-06-20 15:44:43 GMT 26.076960 -80.165062 0 88 24
2021-06-20 15:44:42 GMT 26.076950 -80.165237 0 91 17
2021-06-20 15:44:41 GMT 26.076960 -80.165466 0 88 8
2021-06-20 15:44:39 GMT 26.076960 -80.165512 0 90 9
2021-06-20 15:44:38 GMT 26.076950 -80.165558 0 90 8
2021-06-20 15:44:36 GMT 26.076981 -80.165649 0 82 7
2021-06-20 15:44:35 GMT 26.076960 -80.165703 0 85 6
2021-06-20 15:44:33 GMT 26.076960 -80.165756 0 81 5
2021-06-20 15:44:32 GMT 26.076960 -80.165810 0 92 3
2021-06-20 15:44:31 GMT 26.076950 -80.165833 0 94 2
2021-06-20 15:44:30 GMT 26.076910 -80.165840 0 122 7
2021-06-20 15:44:28 GMT 26.076910 -80.165863 0 115 9
2021-06-20 15:44:27 GMT 26.076960 -80.165909 0 98 11
2021-06-20 15:44:25 GMT 26.076960 -80.165970 0 92 11
2021-06-20 15:44:24 GMT 26.076981 -80.166000 0 83 12
2021-06-20 15:44:23 GMT 26.076990 -80.166054 0 68 12
2021-06-20 15:44:21 GMT 26.076990 -80.166191 0 46 12
2021-06-20 15:44:20 GMT 26.076960 -80.166222 0 41 13
2021-06-20 15:44:18 GMT 26.076860 -80.166328 0 26 10
2021-06-20 15:44:17 GMT 26.076830 -80.166359 0 16 10
2021-06-20 15:44:16 GMT 26.076740 -80.166451 0 352 10
2021-06-20 15:44:14 GMT 26.076731 -80.166420 0 0 13
2021-06-20 15:44:13 GMT 26.076660 -80.166412 0 4 12
2021-06-20 15:44:12 GMT 26.076540 -80.166420 0 2 10
2021-06-20 15:44:10 GMT 26.076490 -80.166428 0 356 10
2021-06-20 15:44:09 GMT 26.076460 -80.166451 0 350 13
2021-06-20 15:44:07 GMT 26.076309 -80.166443 0 342 7
2021-06-20 15:44:06 GMT 26.076281 -80.166443 0 344 7
2021-06-20 15:44:05 GMT 26.076200 -80.166389 0 4 4
2021-06-20 15:44:03 GMT 26.076160 -80.166382 0 0 3
2021-06-20 15:44:02 GMT 26.076139 -80.166412 0 0 2
2021-06-20 15:44:00 GMT 26.076120 -80.166412 0 0 2
2021-06-20 15:43:59 GMT 26.076090 -80.166420 0 0 0
2021-06-20 15:43:55 GMT 26.076050 -80.166443 0 0 1
2021-06-20 15:43:53 GMT 26.076059 -80.166420 0 0 0
2021-06-20 15:43:51 GMT 26.076059 -80.166420 0 0 0
2021-06-20 15:43:50 GMT 26.076071 -80.166389 0 0 1
2021-06-20 15:43:49 GMT 26.076090 -80.166344 0 0 4
2021-06-20 15:43:47 GMT 26.076071 -80.166382 0 0 2
2021-06-20 15:43:46 GMT 26.076059 -80.166412 0 0 1
2021-06-20 15:43:43 GMT 26.076050 -80.166420 0 0 0
2021-06-20 15:43:42 GMT 26.076059 -80.166420 0 0 0
2021-06-20 15:43:41 GMT 26.076059 -80.166420 0 0 0
2021-06-20 15:43:37 GMT 26.076071 -80.166420 0 0 0
2021-06-20 15:43:36 GMT 26.076059 -80.166412 0 0 0
2021-06-20 15:43:35 GMT 26.076071 -80.166397 0 0 1
2021-06-20 15:43:33 GMT 26.076059 -80.166412 0 0 0
2021-06-20 15:43:31 GMT 26.076059 -80.166420 0 0 1
2021-06-20 15:43:29 GMT 26.076040 -80.166420 0 0 1
2021-06-20 15:43:28 GMT 26.076040 -80.166412 0 0 1
2021-06-20 15:43:27 GMT 26.076059 -80.166397 0 1 2
2021-06-20 15:43:26 GMT 26.076071 -80.166420 0 4 1
2021-06-20 15:43:24 GMT 26.076090 -80.166412 0 4 4
2021-06-20 15:43:23 GMT 26.076080 -80.166420 0 4 5
2021-06-20 15:43:21 GMT 26.076031 -80.166428 0 358 5
2021-06-20 15:43:20 GMT 26.076000 -80.166428 0 354 3
2021-06-20 15:43:17 GMT 26.075960 -80.166443 0 332 5
2021-06-20 15:43:16 GMT 26.075960 -80.166420 0 338 6
2021-06-20 15:43:14 GMT 26.075911 -80.166397 0 333 7
2021-06-20 15:43:13 GMT 26.075880 -80.166382 0 332 7
2021-06-20 15:43:11 GMT 26.075800 -80.166321 0 337 3
2021-06-20 15:43:10 GMT 26.075800 -80.166328 0 315 3
2021-06-20 15:43:09 GMT 26.075760 -80.166351 0 283 9
2021-06-20 15:43:07 GMT 26.075741 -80.166298 0 280 9
2021-06-20 15:43:06 GMT 26.075729 -80.166222 0 277 5
2021-06-20 15:43:04 GMT 26.075701 -80.166199 0 263 8
2021-06-20 15:43:03 GMT 26.075689 -80.166168 0 264 9
2021-06-20 15:43:02 GMT 26.075701 -80.166138 0 270 11
2021-06-20 15:43:00 GMT 26.075701 -80.166031 0 268 13
2021-06-20 15:42:59 GMT 26.075729 -80.165977 0 273 14
2021-06-20 15:42:58 GMT 26.075710 -80.165909 0 269 14
2021-06-20 15:42:56 GMT 26.075720 -80.165771 0 271 13
2021-06-20 15:42:55 GMT 26.075710 -80.165710 0 270 14
2021-06-20 15:42:53 GMT 26.075729 -80.165573 0 275 15
2021-06-20 15:42:52 GMT 26.075710 -80.165497 0 271 16
2021-06-20 15:42:51 GMT 26.075720 -80.165321 0 271 13
2021-06-20 15:42:49 GMT 26.075701 -80.165230 0 269 10
2021-06-20 15:42:48 GMT 26.075720 -80.165123 0 274 9
2021-06-20 15:42:46 GMT 26.075720 -80.165092 0 269 11
2021-06-20 15:42:45 GMT 26.075710 -80.165039 0 263 11
2021-06-20 15:42:43 GMT 26.075701 -80.164932 0 257 8
2021-06-20 15:42:42 GMT 26.075720 -80.164886 0 258 8
2021-06-20 15:42:41 GMT 26.075760 -80.164780 0 271 5
2021-06-20 15:42:39 GMT 26.075741 -80.164757 0 267 4
2021-06-20 15:42:38 GMT 26.075760 -80.164749 0 270 5
2021-06-20 15:42:37 GMT 26.075781 -80.164658 0 270 2
2021-06-20 15:42:35 GMT 26.075741 -80.164642 0 270 1
2021-06-20 15:42:34 GMT 26.075720 -80.164619 0 270 1
2021-06-20 15:42:32 GMT 26.075720 -80.164619 0 270 1
2021-06-20 15:42:31 GMT 26.075720 -80.164612 0 270 1
2021-06-20 15:42:29 GMT 26.075729 -80.164612 0 270 1
2021-06-20 15:42:28 GMT 26.075720 -80.164612 0 270 1
2021-06-20 15:42:27 GMT 26.075720 -80.164642 0 270 1
2021-06-20 15:42:26 GMT 26.075720 -80.164619 0 270 2
2021-06-20 15:42:23 GMT 26.075689 -80.164612 0 270 0
2021-06-20 15:42:22 GMT 26.075689 -80.164619 0 270 1
2021-06-20 15:42:21 GMT 26.075701 -80.164627 0 270 0
2021-06-20 15:42:17 GMT 26.075701 -80.164619 0 270 1
2021-06-20 15:42:16 GMT 26.075710 -80.164627 0 270 1
2021-06-20 15:42:13 GMT 26.075689 -80.164612 0 270 1
2021-06-20 15:42:12 GMT 26.075701 -80.164627 0 270 1
2021-06-20 15:42:11 GMT 26.075710 -80.164627 0 270 1
2021-06-20 15:42:09 GMT 26.075741 -80.164619 0 270 0
2021-06-20 15:42:08 GMT 26.075741 -80.164612 0 270 1
2021-06-20 15:42:06 GMT 26.075741 -80.164619 0 270 1
2021-06-20 15:42:03 GMT 26.075710 -80.164619 0 270 0
2021-06-20 15:42:01 GMT 26.075710 -80.164642 0 270 1
2021-06-20 15:42:00 GMT 26.075750 -80.164589 0 270 1
2021-06-20 15:41:58 GMT 26.075741 -80.164597 0 270 1
2021-06-20 15:41:56 GMT 26.075720 -80.164612 0 270 1
2021-06-20 15:41:54 GMT 26.075710 -80.164612 0 270 1
2021-06-20 15:41:53 GMT 26.075729 -80.164627 0 270 1
2021-06-20 15:41:51 GMT 26.075720 -80.164627 0 270 0
2021-06-20 15:41:50 GMT 26.075729 -80.164589 0 270 1
2021-06-20 15:41:49 GMT 26.075720 -80.164597 0 270 0
2021-06-20 15:41:48 GMT 26.075710 -80.164581 0 270 0
2021-06-20 15:41:46 GMT 26.075710 -80.164589 0 270 0
2021-06-20 15:41:44 GMT 26.075701 -80.164574 0 270 0
2021-06-20 15:41:43 GMT 26.075701 -80.164520 0 270 1
2021-06-20 15:41:42 GMT 26.075701 -80.164543 0 270 0
2021-06-20 15:41:41 GMT 26.075701 -80.164513 0 270 1
2021-06-20 15:41:39 GMT 26.075701 -80.164551 0 270 1
2021-06-20 15:41:38 GMT 26.075710 -80.164558 0 270 0
2021-06-20 15:41:37 GMT 26.075710 -80.164574 0 270 0
2021-06-20 15:41:35 GMT 26.075680 -80.164543 0 270 1
2021-06-20 15:41:34 GMT 26.075680 -80.164581 0 270 1
2021-06-20 15:41:32 GMT 26.075689 -80.164619 0 270 0
2021-06-20 15:41:30 GMT 26.075710 -80.164627 0 270 0
2021-06-20 15:41:27 GMT 26.075729 -80.164619 0 270 0
2021-06-20 15:41:26 GMT 26.075701 -80.164597 0 270 0
2021-06-20 15:41:24 GMT 26.075680 -80.164589 0 270 1
2021-06-20 15:41:23 GMT 26.075680 -80.164627 0 270 1
2021-06-20 15:41:21 GMT 26.075689 -80.164642 0 270 1
2021-06-20 15:41:20 GMT 26.075701 -80.164627 0 270 1
2021-06-20 15:41:19 GMT 26.075689 -80.164627 0 270 1
2021-06-20 15:41:16 GMT 26.075701 -80.164627 0 270 1
2021-06-20 15:41:15 GMT 26.075720 -80.164619 0 270 0
2021-06-20 15:41:13 GMT 26.075689 -80.164597 0 270 2
2021-06-20 15:41:12 GMT 26.075689 -80.164612 0 270 2
2021-06-20 15:41:11 GMT 26.075729 -80.164597 0 270 0
2021-06-20 15:41:08 GMT 26.075741 -80.164612 0 270 0
2021-06-20 15:41:06 GMT 26.075750 -80.164619 0 270 1
2021-06-20 15:41:05 GMT 26.075760 -80.164612 0 270 2
2021-06-20 15:41:04 GMT 26.075729 -80.164612 0 270 1
2021-06-20 15:41:02 GMT 26.075720 -80.164619 0 270 0
2021-06-20 15:41:01 GMT 26.075701 -80.164619 0 270 0
2021-06-20 15:40:59 GMT 26.075689 -80.164619 0 270 1
2021-06-20 15:40:58 GMT 26.075701 -80.164642 0 270 1
2021-06-20 15:40:56 GMT 26.075710 -80.164642 0 270 1
2021-06-20 15:40:55 GMT 26.075729 -80.164619 0 270 1
2021-06-20 15:40:52 GMT 26.075720 -80.164619 0 270 1
2021-06-20 15:40:51 GMT 26.075710 -80.164627 0 270 0
2021-06-20 15:40:48 GMT 26.075701 -80.164619 0 270 0
2021-06-20 15:40:46 GMT 26.075689 -80.164558 0 270 1
2021-06-20 15:40:45 GMT 26.075701 -80.164551 0 270 1
2021-06-20 15:40:44 GMT 26.075701 -80.164612 0 270 0
2021-06-20 15:40:42 GMT 26.075710 -80.164619 0 270 0
2021-06-20 15:40:41 GMT 26.075720 -80.164619 0 270 1
2021-06-20 15:40:39 GMT 26.075729 -80.164612 0 270 1
2021-06-20 15:40:38 GMT 26.075720 -80.164612 0 270 1
2021-06-20 15:40:36 GMT 26.075720 -80.164619 0 270 1
2021-06-20 15:40:35 GMT 26.075710 -80.164619 0 270 1
2021-06-20 15:40:32 GMT 26.075720 -80.164627 0 270 1
2021-06-20 15:40:31 GMT 26.075720 -80.164619 0 270 0
2021-06-20 15:40:29 GMT 26.075710 -80.164627 0 270 0
2021-06-20 15:40:28 GMT 26.075710 -80.164642 0 270 1
2021-06-20 15:40:26 GMT 26.075710 -80.164627 0 270 1
2021-06-20 15:40:24 GMT 26.075729 -80.164612 0 270 1
2021-06-20 15:40:23 GMT 26.075720 -80.164619 0 270 2
2021-06-20 15:40:22 GMT 26.075710 -80.164642 0 270 0
2021-06-20 15:40:21 GMT 26.075701 -80.164627 0 270 0
2021-06-20 15:40:19 GMT 26.075701 -80.164619 0 271 1
2021-06-20 15:40:18 GMT 26.075720 -80.164619 0 272 0
2021-06-20 15:40:17 GMT 26.075729 -80.164619 0 276 3
2021-06-20 15:40:15 GMT 26.075729 -80.164612 0 282 5
2021-06-20 15:40:14 GMT 26.075710 -80.164581 0 270 5
2021-06-20 15:40:13 GMT 26.075701 -80.164543 0 258 8
2021-06-20 15:40:11 GMT 26.075680 -80.164520 0 256 11
2021-06-20 15:40:10 GMT 26.075680 -80.164490 0 256 15
2021-06-20 15:40:08 GMT 26.075729 -80.164360 0 268 18
2021-06-20 15:40:07 GMT 26.075750 -80.164169 0 272 18
2021-06-20 15:40:05 GMT 26.075760 -80.164093 0 275 21
2021-06-20 15:40:04 GMT 26.075760 -80.163979 0 276 21
2021-06-20 15:40:02 GMT 26.075689 -80.163788 0 264 23
2021-06-20 15:40:01 GMT 26.075701 -80.163673 0 265 22
2021-06-20 15:39:59 GMT 26.075729 -80.163452 0 268 24
2021-06-20 15:39:57 GMT 26.075750 -80.163239 0 273 25
2021-06-20 15:39:56 GMT 26.075741 -80.162979 0 273 26
2021-06-20 15:39:54 GMT 26.075729 -80.162849 0 273 26
2021-06-20 15:39:53 GMT 26.075689 -80.162720 0 267 26
2021-06-20 15:39:51 GMT 26.075689 -80.162468 0 267 27
2021-06-20 15:39:50 GMT 26.075701 -80.162331 0 267 28
2021-06-20 15:39:48 GMT 26.075729 -80.162071 0 272 31
2021-06-20 15:39:47 GMT 26.075729 -80.161888 0 273 30
2021-06-20 15:39:46 GMT 26.075701 -80.161743 0 270 30
2021-06-20 15:39:44 GMT 26.075689 -80.161423 0 269 28
2021-06-20 15:39:43 GMT 26.075689 -80.161270 0 270 27
2021-06-20 15:39:42 GMT 26.075720 -80.160988 0 273 28
2021-06-20 15:39:40 GMT 26.075689 -80.160873 0 270 30
2021-06-20 15:39:39 GMT 26.075689 -80.160698 0 269 28
2021-06-20 15:39:38 GMT 26.075689 -80.160553 0 269 29
2021-06-20 15:39:36 GMT 26.075689 -80.160240 0 267 26
2021-06-20 15:39:35 GMT 26.075689 -80.160110 0 267 26
2021-06-20 15:39:34 GMT 26.075710 -80.159981 0 270 27
2021-06-20 15:39:32 GMT 26.075701 -80.159698 0 272 27
2021-06-20 15:39:31 GMT 26.075680 -80.159569 0 268 28
2021-06-20 15:39:30 GMT 26.075701 -80.159279 0 271 28
2021-06-20 15:39:28 GMT 26.075710 -80.159119 0 273 25
2021-06-20 15:39:26 GMT 26.075689 -80.158859 0 274 25
2021-06-20 15:39:25 GMT 26.075670 -80.158760 0 271 27
2021-06-20 15:39:24 GMT 26.075661 -80.158623 0 267 27
2021-06-20 15:39:23 GMT 26.075670 -80.158318 0 268 23
2021-06-20 15:39:21 GMT 26.075680 -80.158203 0 269 23
2021-06-20 15:39:19 GMT 26.075701 -80.157967 0 274 25
2021-06-20 15:39:18 GMT 26.075680 -80.157837 0 271 25
2021-06-20 15:39:16 GMT 26.075661 -80.157570 0 268 23
2021-06-20 15:39:15 GMT 26.075689 -80.157448 0 273 22
2021-06-20 15:39:14 GMT 26.075670 -80.157341 0 272 23
2021-06-20 15:39:13 GMT 26.075670 -80.157112 0 274 25
2021-06-20 15:39:11 GMT 26.075630 -80.156837 0 265 22
2021-06-20 15:39:09 GMT 26.075640 -80.156723 0 265 21
2021-06-20 15:39:08 GMT 26.075649 -80.156609 0 266 21
2021-06-20 15:39:07 GMT 26.075661 -80.156502 0 265 21
2021-06-20 15:39:05 GMT 26.075680 -80.156303 0 270 24
2021-06-20 15:39:04 GMT 26.075680 -80.156158 0 271 22
2021-06-20 15:39:03 GMT 26.075680 -80.155952 0 270 21
2021-06-20 15:39:01 GMT 26.075689 -80.155830 0 273 21
2021-06-20 15:39:00 GMT 26.075649 -80.155586 0 268 20
2021-06-20 15:38:58 GMT 26.075670 -80.155487 0 271 19
2021-06-20 15:38:57 GMT 26.075649 -80.155380 0 267 19
2021-06-20 15:38:55 GMT 26.075661 -80.155197 0 267 19
2021-06-20 15:38:54 GMT 26.075670 -80.155098 0 269 18
2021-06-20 15:38:52 GMT 26.075680 -80.154922 0 271 20
2021-06-20 15:38:51 GMT 26.075661 -80.154778 0 269 18
2021-06-20 15:38:50 GMT 26.075661 -80.154694 0 269 18
2021-06-20 15:38:48 GMT 26.075661 -80.154503 0 269 16
2021-06-20 15:38:47 GMT 26.075661 -80.154442 0 267 18
2021-06-20 15:38:45 GMT 26.075670 -80.154243 0 271 17
2021-06-20 15:38:44 GMT 26.075661 -80.154137 0 269 17
2021-06-20 15:38:43 GMT 26.075630 -80.153976 0 260 17
2021-06-20 15:38:41 GMT 26.075640 -80.153877 0 260 16
2021-06-20 15:38:40 GMT 26.075661 -80.153801 0 264 16
2021-06-20 15:38:38 GMT 26.075661 -80.153641 0 268 15
2021-06-20 15:38:37 GMT 26.075670 -80.153580 0 276 15
2021-06-20 15:38:35 GMT 26.075670 -80.153427 0 290 16
2021-06-20 15:38:34 GMT 26.075680 -80.153381 0 305 17
2021-06-20 15:38:32 GMT 26.075600 -80.153198 0 321 15
2021-06-20 15:38:31 GMT 26.075560 -80.153137 0 329 14
2021-06-20 15:38:29 GMT 26.075460 -80.153038 0 351 13
2021-06-20 15:38:28 GMT 26.075371 -80.153000 0 359 11
2021-06-20 15:38:27 GMT 26.075319 -80.152977 0 3 9
2021-06-20 15:38:25 GMT 26.075211 -80.152977 0 359 9
2021-06-20 15:38:24 GMT 26.075171 -80.153023 0 354 11
2021-06-20 15:38:23 GMT 26.075060 -80.152977 0 4 13
2021-06-20 15:38:21 GMT 26.075001 -80.152977 0 4 15
2021-06-20 15:38:19 GMT 26.074890 -80.153000 0 0 21
2021-06-20 15:38:18 GMT 26.074810 -80.153008 0 359 23
2021-06-20 15:38:17 GMT 26.074720 -80.153008 0 357 24
2021-06-20 15:38:15 GMT 26.074499 -80.153000 0 0 25
2021-06-20 15:38:14 GMT 26.074400 -80.152992 0 1 27
2021-06-20 15:38:12 GMT 26.074160 -80.153000 0 359 28
2021-06-20 15:38:11 GMT 26.074030 -80.153000 0 0 29
2021-06-20 15:38:09 GMT 26.073750 -80.153000 0 0 27
2021-06-20 15:38:08 GMT 26.073620 -80.153008 0 357 26
2021-06-20 15:38:06 GMT 26.073400 -80.152977 0 4 26
2021-06-20 15:38:05 GMT 26.073299 -80.153000 0 1 27
2021-06-20 15:38:04 GMT 26.073170 -80.153023 0 357 27
2021-06-20 15:38:02 GMT 26.072920 -80.152992 0 1 28
2021-06-20 15:38:01 GMT 26.072630 -80.153000 0 2 24
2021-06-20 15:37:58 GMT 26.072411 -80.153023 0 359 24
2021-06-20 15:37:57 GMT 26.072269 -80.153008 0 2 21
2021-06-20 15:37:56 GMT 26.072170 -80.153023 0 359 22
2021-06-20 15:37:55 GMT 26.071970 -80.153023 0 1 22
2021-06-20 15:37:53 GMT 26.071911 -80.153000 0 5 27
2021-06-20 15:37:51 GMT 26.071690 -80.153061 0 357 31
2021-06-20 15:37:50 GMT 26.071541 -80.153091 0 353 30
2021-06-20 15:37:49 GMT 26.071320 -80.153030 0 359 24
2021-06-20 15:37:47 GMT 26.071091 -80.153030 0 357 23
2021-06-20 15:37:46 GMT 26.070971 -80.153023 0 359 21
2021-06-20 15:37:44 GMT 26.070789 -80.153023 0 0 21
2021-06-20 15:37:43 GMT 26.070690 -80.152992 0 5 22
2021-06-20 15:37:42 GMT 26.070629 -80.153008 0 1 25
2021-06-20 15:37:40 GMT 26.070419 -80.153030 0 358 26
2021-06-20 15:37:39 GMT 26.070280 -80.153030 0 358 24
2021-06-20 15:37:38 GMT 26.070009 -80.153023 0 358 20
2021-06-20 15:37:36 GMT 26.069910 -80.153000 0 2 20
2021-06-20 15:37:35 GMT 26.069799 -80.153000 0 4 18
2021-06-20 15:37:33 GMT 26.069630 -80.153008 0 5 16
2021-06-20 15:37:32 GMT 26.069559 -80.153030 0 2 17
2021-06-20 15:37:30 GMT 26.069410 -80.153038 0 2 18
2021-06-20 15:37:29 GMT 26.069330 -80.153038 0 3 18
2021-06-20 15:37:27 GMT 26.069180 -80.153061 0 357 21
2021-06-20 15:37:26 GMT 26.069071 -80.153038 0 2 20
2021-06-20 15:37:25 GMT 26.068979 -80.153053 0 359 20
2021-06-20 15:37:23 GMT 26.068769 -80.152992 0 11 20
2021-06-20 15:37:22 GMT 26.068689 -80.153000 0 10 20
2021-06-20 15:37:21 GMT 26.068529 -80.153023 0 8 20
2021-06-20 15:37:19 GMT 26.068439 -80.153053 0 3 19
2021-06-20 15:37:18 GMT 26.068270 -80.153084 0 351 17
2021-06-20 15:37:16 GMT 26.068180 -80.153091 0 341 16
2021-06-20 15:37:15 GMT 26.068081 -80.153122 0 328 15
2021-06-20 15:37:13 GMT 26.067900 -80.153099 0 296 14
2021-06-20 15:37:12 GMT 26.067841 -80.153061 0 288 14
2021-06-20 15:37:10 GMT 26.067739 -80.152939 0 275 15
2021-06-20 15:37:09 GMT 26.067720 -80.152878 0 271 15
2021-06-20 15:37:07 GMT 26.067699 -80.152740 0 269 16
2021-06-20 15:37:06 GMT 26.067711 -80.152657 0 271 16
2021-06-20 15:37:04 GMT 26.067699 -80.152489 0 270 16
2021-06-20 15:37:03 GMT 26.067699 -80.152412 0 270 16
2021-06-20 15:37:02 GMT 26.067699 -80.152321 0 270 16
2021-06-20 15:37:00 GMT 26.067690 -80.152138 0 269 14
2021-06-20 15:36:59 GMT 26.067690 -80.152046 0 269 14
2021-06-20 15:36:57 GMT 26.067699 -80.151878 0 271 13
2021-06-20 15:36:56 GMT 26.067690 -80.151802 0 270 12
2021-06-20 15:36:55 GMT 26.067690 -80.151733 0 270 12
2021-06-20 15:36:54 GMT 26.067699 -80.151657 0 271 11
2021-06-20 15:36:52 GMT 26.067690 -80.151543 0 269 11
2021-06-20 15:36:51 GMT 26.067690 -80.151482 0 269 10
2021-06-20 15:36:50 GMT 26.067699 -80.151367 0 273 10
2021-06-20 15:36:48 GMT 26.067699 -80.151314 0 273 10
2021-06-20 15:36:47 GMT 26.067690 -80.151260 0 271 10
2021-06-20 15:36:45 GMT 26.067680 -80.151154 0 270 10
2021-06-20 15:36:44 GMT 26.067680 -80.151100 0 269 10
2021-06-20 15:36:43 GMT 26.067680 -80.151009 0 269 10
2021-06-20 15:36:41 GMT 26.067680 -80.150963 0 269 10
2021-06-20 15:36:40 GMT 26.067680 -80.150917 0 270 11
2021-06-20 15:36:39 GMT 26.067680 -80.150818 0 269 12
2021-06-20 15:36:37 GMT 26.067680 -80.150780 0 269 12
2021-06-20 15:36:36 GMT 26.067680 -80.150719 0 269 13
2021-06-20 15:36:34 GMT 26.067680 -80.150612 0 270 14
2021-06-20 15:36:33 GMT 26.067680 -80.150497 0 270 16
2021-06-20 15:36:31 GMT 26.067690 -80.150421 0 270 16
2021-06-20 15:36:30 GMT 26.067680 -80.150352 0 270 17
2021-06-20 15:36:28 GMT 26.067690 -80.150192 0 271 18
2021-06-20 15:36:27 GMT 26.067690 -80.150124 0 270 19
2021-06-20 15:36:26 GMT 26.067690 -80.149933 0 271 19
2021-06-20 15:36:24 GMT 26.067680 -80.149841 0 271 19
2021-06-20 15:36:23 GMT 26.067680 -80.149757 0 271 20
2021-06-20 15:36:21 GMT 26.067680 -80.149551 0 270 20
2021-06-20 15:36:20 GMT 26.067671 -80.149437 0 270 20
2021-06-20 15:36:19 GMT 26.067659 -80.149353 0 269 20
2021-06-20 15:36:17 GMT 26.067659 -80.149139 0 269 20
2021-06-20 15:36:16 GMT 26.067671 -80.148949 0 270 21
2021-06-20 15:36:14 GMT 26.067680 -80.148827 0 270 21
2021-06-20 15:36:12 GMT 26.067671 -80.148621 0 270 21
2021-06-20 15:36:11 GMT 26.067671 -80.148514 0 270 21
2021-06-20 15:36:09 GMT 26.067671 -80.148293 0 271 21
2021-06-20 15:36:08 GMT 26.067659 -80.148178 0 270 21
2021-06-20 15:36:07 GMT 26.067659 -80.148079 0 270 21
2021-06-20 15:36:06 GMT 26.067659 -80.147858 0 270 21
2021-06-20 15:36:04 GMT 26.067659 -80.147758 0 270 21
2021-06-20 15:36:03 GMT 26.067659 -80.147652 0 270 22
2021-06-20 15:36:01 GMT 26.067659 -80.147423 0 269 21
2021-06-20 15:36:00 GMT 26.067659 -80.147202 0 269 21
2021-06-20 15:35:58 GMT 26.067659 -80.147079 0 270 20
2021-06-20 15:35:57 GMT 26.067659 -80.146973 0 270 20
2021-06-20 15:35:56 GMT 26.067659 -80.146751 0 270 19
2021-06-20 15:35:54 GMT 26.067659 -80.146660 0 270 20
2021-06-20 15:35:53 GMT 26.067659 -80.146561 0 270 20
2021-06-20 15:35:51 GMT 26.067659 -80.146347 0 270 20
2021-06-20 15:35:50 GMT 26.067659 -80.146263 0 270 20
2021-06-20 15:35:48 GMT 26.067659 -80.146042 0 270 19
2021-06-20 15:35:47 GMT 26.067659 -80.145943 0 270 19
2021-06-20 15:35:46 GMT 26.067650 -80.145798 0 271 18
2021-06-20 15:35:44 GMT 26.067640 -80.145599 0 270 18

Making use of Plane Finder data

You are free to use the raw flight data, aircraft information and images provided in this report for your own purposes provided the data is correctly attributed to Plane Finder. We ask that you please credit Plane Finder and link to planefinder.net in close proximity to the content.

Optionally one of the following logos (no smaller then 150x24px) can be used and must link to planefinder.net

Embedding the Plane Finder map

You are welcome to embed the Plane Finder playback map on your website to offer visitors a more interactive experience. We suggest using the following HTML code:

<iframe src="//planefinder.net/data/report/NK237-N646NK-7700-squawk-2021-06-20/map" width="800" height="600" seamless="seamless"></iframe>

Where our data comes from

Plane Finder has a global network of data feeds and antenna radars that receive data broadcast directly from aircraft. The primary technologies used are ADS-B and MLAT. We also show feeds from the FAA and a FLARM glider feed.

Click here to find out more about the Plane Finder network.

How we collect our data